NOAA Web Site Link Tides and Currents Home Page Transparent placeholder image

PORTS® Data Listing: 8726667 Mckay Bay Entrance, FL

CO-OPS RAW PORTS DATA

************************      PRELIMINARY DATA      ************************** 

     THIS RAW DATA HAS NOT BEEN SUBJECT TO THE NATIONAL OCEAN SERVICE'S        
     QUALITY CONTROL OR QUALITY ASSURANCE PROCEDURES AND DOES NOT MEET         
     THE CRITERIA AND STANDARDS OF OFFICIAL NATIONAL OCEAN SERVICE             
     DATA.  IT IS RELEASED FOR LIMITED PUBLIC USE AS PRELIMINARY DATA TO       
     BE USED ONLY WITH APPROPRIATE CAUTION.                                    

************************      PRELIMINARY DATA      ************************** 


       CD   -   Calendar date
       T    -   Time
       TZ   -   Timezone
       PW   -   Predicted water level (feet above MLLW)
       OW   -   Observed water level (feet above MLLW)
       WS   -   Wind speed (knots)
       WD   -   Wind direction (degrees true)
       WG   -   Wind gust (knots)
       AT   -   Air temperature (degrees farenheit)
       WT   -   Water temperature (degrees farenheit)
       AP   -   Air pressure (millibars)
       SA   -   Salinty (PSU - Practical Salinity Units)
       SG   -   Specific gravity
       RH   -   Relative humidity
       AG   -   Air gap (feet)
       VI   -   Visibility (nautical miles)

       ** NOTE **
       A variable that has its data fields filled with "9"s, indicates that
       data was not collected for that sample period.
       **********


STATION NAME: Mckay Bay Entrance (8726667)
****************************************************************************************************
    CD       T    TZ    PW     OW    WS   WD   WG    AT    WT    AP    SA    SG     RH    AG   VI
****************************************************************************************************
2019/08/18 22:24 EDT    0.67   0.95 -999 -999 -999 -99.9  83.1 -999.9 -9.9 -9.999 -99.9 -99.99 -9.99
2019/08/18 22:30 EDT    0.65   0.92 -999 -999 -999 -99.9  83.1 -999.9 -9.9 -9.999 -99.9 -99.99 -9.99
2019/08/18 22:36 EDT    0.63   0.89 -999 -999 -999 -99.9  83.1 -999.9 -9.9 -9.999 -99.9 -99.99 -9.99
2019/08/18 22:42 EDT    0.62   0.86 -999 -999 -999 -99.9  83.1 -999.9 -9.9 -9.999 -99.9 -99.99 -9.99
2019/08/18 22:48 EDT    0.61   0.84 -999 -999 -999 -99.9  83.1 -999.9 -9.9 -9.999 -99.9 -99.99 -9.99
2019/08/18 22:54 EDT    0.60   0.81 -999 -999 -999 -99.9  83.1 -999.9 -9.9 -9.999 -99.9 -99.99 -9.99
2019/08/18 23:00 EDT    0.59   0.79 -999 -999 -999 -99.9  83.1 -999.9 -9.9 -9.999 -99.9 -99.99 -9.99
2019/08/18 23:06 EDT    0.58   0.78 -999 -999 -999 -99.9  83.1 -999.9 -9.9 -9.999 -99.9 -99.99 -9.99
2019/08/18 23:12 EDT    0.58   0.76 -999 -999 -999 -99.9  83.1 -999.9 -9.9 -9.999 -99.9 -99.99 -9.99
2019/08/18 23:18 EDT    0.58   0.76 -999 -999 -999 -99.9  83.1 -999.9 -9.9 -9.999 -99.9 -99.99 -9.99
2019/08/18 23:24 EDT    0.58   0.75 -999 -999 -999 -99.9  83.1 -999.9 -9.9 -9.999 -99.9 -99.99 -9.99
2019/08/18 23:30 EDT    0.59   0.75 -999 -999 -999 -99.9  83.1 -999.9 -9.9 -9.999 -99.9 -99.99 -9.99
2019/08/18 23:36 EDT    0.59   0.75 -999 -999 -999 -99.9  82.9 -999.9 -9.9 -9.999 -99.9 -99.99 -9.99
2019/08/18 23:42 EDT    0.60   0.76 -999 -999 -999 -99.9  83.1 -999.9 -9.9 -9.999 -99.9 -99.99 -9.99
2019/08/18 23:48 EDT    0.62   0.78 -999 -999 -999 -99.9  83.1 -999.9 -9.9 -9.999 -99.9 -99.99 -9.99
2019/08/18 23:54 EDT    0.63   0.79 -999 -999 -999 -99.9  82.9 -999.9 -9.9 -9.999 -99.9 -99.99 -9.99
2019/08/19 00:00 EDT    0.65   0.81 -999 -999 -999 -99.9  82.9 -999.9 -9.9 -9.999 -99.9 -99.99 -9.99
2019/08/19 00:06 EDT    0.67   0.85 -999 -999 -999 -99.9  83.1 -999.9 -9.9 -9.999 -99.9 -99.99 -9.99
2019/08/19 00:12 EDT    0.70   0.86 -999 -999 -999 -99.9  83.1 -999.9 -9.9 -9.999 -99.9 -99.99 -9.99
2019/08/19 00:18 EDT    0.72   0.89 -999 -999 -999 -99.9  83.1 -999.9 -9.9 -9.999 -99.9 -99.99 -9.99
2019/08/19 00:24 EDT    0.75   0.93 -999 -999 -999 -99.9  83.1 -999.9 -9.9 -9.999 -99.9 -99.99 -9.99
2019/08/19 00:30 EDT    0.79   0.97 -999 -999 -999 -99.9  83.1 -999.9 -9.9 -9.999 -99.9 -99.99 -9.99
2019/08/19 00:36 EDT    0.82   1.00 -999 -999 -999 -99.9  82.9 -999.9 -9.9 -9.999 -99.9 -99.99 -9.99
2019/08/19 00:42 EDT    0.86   1.03 -999 -999 -999 -99.9  82.9 -999.9 -9.9 -9.999 -99.9 -99.99 -9.99
2019/08/19 00:48 EDT    0.90   1.08 -999 -999 -999 -99.9  82.9 -999.9 -9.9 -9.999 -99.9 -99.99 -9.99
2019/08/19 00:54 EDT    0.94   1.13 -999 -999 -999 -99.9  82.8 -999.9 -9.9 -9.999 -99.9 -99.99 -9.99
2019/08/19 01:00 EDT    0.99   1.18 -999 -999 -999 -99.9  82.8 -999.9 -9.9 -9.999 -99.9 -99.99 -9.99
2019/08/19 01:06 EDT    1.03   1.21 -999 -999 -999 -99.9  82.8 -999.9 -9.9 -9.999 -99.9 -99.99 -9.99
2019/08/19 01:12 EDT    1.08   1.27 -999 -999 -999 -99.9  82.8 -999.9 -9.9 -9.999 -99.9 -99.99 -9.99
2019/08/19 01:18 EDT    1.13   1.33 -999 -999 -999 -99.9  82.8 -999.9 -9.9 -9.999 -99.9 -99.99 -9.99
2019/08/19 01:24 EDT    1.18   1.38 -999 -999 -999 -99.9  82.8 -999.9 -9.9 -9.999 -99.9 -99.99 -9.99
2019/08/19 01:30 EDT    1.23   1.43 -999 -999 -999 -99.9  82.8 -999.9 -9.9 -9.999 -99.9 -99.99 -9.99
2019/08/19 01:36 EDT    1.28   1.49 -999 -999 -999 -99.9  82.8 -999.9 -9.9 -9.999 -99.9 -99.99 -9.99
2019/08/19 01:42 EDT    1.34   1.55 -999 -999 -999 -99.9  82.8 -999.9 -9.9 -9.999 -99.9 -99.99 -9.99
2019/08/19 01:48 EDT    1.39   1.60 -999 -999 -999 -99.9  82.8 -999.9 -9.9 -9.999 -99.9 -99.99 -9.99
2019/08/19 01:54 EDT    1.44   1.67 -999 -999 -999 -99.9  82.8 -999.9 -9.9 -9.999 -99.9 -99.99 -9.99
2019/08/19 02:00 EDT    1.49   1.72 -999 -999 -999 -99.9  82.8 -999.9 -9.9 -9.999 -99.9 -99.99 -9.99
2019/08/19 02:06 EDT    1.54   1.76 -999 -999 -999 -99.9  82.8 -999.9 -9.9 -9.999 -99.9 -99.99 -9.99
2019/08/19 02:12 EDT    1.59   1.84 -999 -999 -999 -99.9  82.8 -999.9 -9.9 -9.999 -99.9 -99.99 -9.99
2019/08/19 02:18 EDT    1.64   1.89 -999 -999 -999 -99.9  82.8 -999.9 -9.9 -9.999 -99.9 -99.99 -9.99
2019/08/19 02:24 EDT    1.69   1.96 -999 -999 -999 -99.9  83.1 -999.9 -9.9 -9.999 -99.9 -99.99 -9.99
2019/08/19 02:30 EDT    1.74   1.98 -999 -999 -999 -99.9  83.1 -999.9 -9.9 -9.999 -99.9 -99.99 -9.99
2019/08/19 02:36 EDT    1.78   2.01 -999 -999 -999 -99.9  83.3 -999.9 -9.9 -9.999 -99.9 -99.99 -9.99
2019/08/19 02:42 EDT    1.82   2.07 -999 -999 -999 -99.9  83.3 -999.9 -9.9 -9.999 -99.9 -99.99 -9.99
2019/08/19 02:48 EDT    1.86   2.11 -999 -999 -999 -99.9  83.5 -999.9 -9.9 -9.999 -99.9 -99.99 -9.99
2019/08/19 02:54 EDT    1.90   2.15 -999 -999 -999 -99.9  83.5 -999.9 -9.9 -9.999 -99.9 -99.99 -9.99
2019/08/19 03:00 EDT    1.94   2.15 -999 -999 -999 -99.9  83.5 -999.9 -9.9 -9.999 -99.9 -99.99 -9.99
2019/08/19 03:06 EDT    1.97   2.20 -999 -999 -999 -99.9  83.5 -999.9 -9.9 -9.999 -99.9 -99.99 -9.99
2019/08/19 03:12 EDT    2.01   2.24 -999 -999 -999 -99.9  83.7 -999.9 -9.9 -9.999 -99.9 -99.99 -9.99
2019/08/19 03:18 EDT    2.04   2.25 -999 -999 -999 -99.9  83.7 -999.9 -9.9 -9.999 -99.9 -99.99 -9.99
2019/08/19 03:24 EDT    2.07   2.28 -999 -999 -999 -99.9  83.7 -999.9 -9.9 -9.999 -99.9 -99.99 -9.99
2019/08/19 03:30 EDT    2.09   2.33 -999 -999 -999 -99.9  83.7 -999.9 -9.9 -9.999 -99.9 -99.99 -9.99
2019/08/19 03:36 EDT    2.12   2.35 -999 -999 -999 -99.9  83.7 -999.9 -9.9 -9.999 -99.9 -99.99 -9.99
2019/08/19 03:42 EDT    2.14   2.37 -999 -999 -999 -99.9  83.7 -999.9 -9.9 -9.999 -99.9 -99.99 -9.99
2019/08/19 03:48 EDT    2.16   2.40 -999 -999 -999 -99.9  83.8 -999.9 -9.9 -9.999 -99.9 -99.99 -9.99
2019/08/19 03:54 EDT    2.18   2.43 -999 -999 -999 -99.9  83.8 -999.9 -9.9 -9.999 -99.9 -99.99 -9.99
2019/08/19 04:00 EDT    2.20   2.46 -999 -999 -999 -99.9  83.8 -999.9 -9.9 -9.999 -99.9 -99.99 -9.99
2019/08/19 04:06 EDT    2.22   2.48 -999 -999 -999 -99.9  83.8 -999.9 -9.9 -9.999 -99.9 -99.99 -9.99
2019/08/19 04:12 EDT    2.23   2.49 -999 -999 -999 -99.9  83.8 -999.9 -9.9 -9.999 -99.9 -99.99 -9.99
2019/08/19 04:18 EDT    2.24   2.51 -999 -999 -999 -99.9  84.0 -999.9 -9.9 -9.999 -99.9 -99.99 -9.99
2019/08/19 04:24 EDT    2.26   2.52 -999 -999 -999 -99.9  84.0 -999.9 -9.9 -9.999 -99.9 -99.99 -9.99
2019/08/19 04:30 EDT    2.27   2.52 -999 -999 -999 -99.9  84.0 -999.9 -9.9 -9.999 -99.9 -99.99 -9.99
2019/08/19 04:36 EDT    2.28   2.54 -999 -999 -999 -99.9  84.0 -999.9 -9.9 -9.999 -99.9 -99.99 -9.99
2019/08/19 04:42 EDT    2.28   2.55 -999 -999 -999 -99.9  84.0 -999.9 -9.9 -9.999 -99.9 -99.99 -9.99
2019/08/19 04:48 EDT    2.29   2.53 -999 -999 -999 -99.9  84.0 -999.9 -9.9 -9.999 -99.9 -99.99 -9.99
2019/08/19 04:54 EDT    2.29   2.54 -999 -999 -999 -99.9  84.0 -999.9 -9.9 -9.999 -99.9 -99.99 -9.99
2019/08/19 05:00 EDT    2.30   2.56 -999 -999 -999 -99.9  84.0 -999.9 -9.9 -9.999 -99.9 -99.99 -9.99
2019/08/19 05:06 EDT    2.30   2.55 -999 -999 -999 -99.9  84.0 -999.9 -9.9 -9.999 -99.9 -99.99 -9.99
2019/08/19 05:12 EDT    2.30   2.54 -999 -999 -999 -99.9  84.0 -999.9 -9.9 -9.999 -99.9 -99.99 -9.99
2019/08/19 05:18 EDT    2.30   2.55 -999 -999 -999 -99.9  84.0 -999.9 -9.9 -9.999 -99.9 -99.99 -9.99
2019/08/19 05:24 EDT    2.30   2.54 -999 -999 -999 -99.9  84.0 -999.9 -9.9 -9.999 -99.9 -99.99 -9.99
2019/08/19 05:30 EDT    2.29   2.54 -999 -999 -999 -99.9  84.0 -999.9 -9.9 -9.999 -99.9 -99.99 -9.99
2019/08/19 05:36 EDT    2.29   2.53 -999 -999 -999 -99.9  84.0 -999.9 -9.9 -9.999 -99.9 -99.99 -9.99
2019/08/19 05:42 EDT    2.28   2.51 -999 -999 -999 -99.9  84.0 -999.9 -9.9 -9.999 -99.9 -99.99 -9.99
2019/08/19 05:48 EDT    2.27   2.51 -999 -999 -999 -99.9  84.0 -999.9 -9.9 -9.999 -99.9 -99.99 -9.99
2019/08/19 05:54 EDT    2.26   2.50 -999 -999 -999 -99.9  84.0 -999.9 -9.9 -9.999 -99.9 -99.99 -9.99
2019/08/19 06:00 EDT    2.25   2.48 -999 -999 -999 -99.9  84.0 -999.9 -9.9 -9.999 -99.9 -99.99 -9.99
2019/08/19 06:06 EDT    2.23   2.46 -999 -999 -999 -99.9  84.0 -999.9 -9.9 -9.999 -99.9 -99.99 -9.99
2019/08/19 06:12 EDT    2.22   2.45 -999 -999 -999 -99.9  84.0 -999.9 -9.9 -9.999 -99.9 -99.99 -9.99
2019/08/19 06:18 EDT    2.20   2.43 -999 -999 -999 -99.9  84.0 -999.9 -9.9 -9.999 -99.9 -99.99 -9.99
2019/08/19 06:24 EDT    2.18   2.41 -999 -999 -999 -99.9  84.0 -999.9 -9.9 -9.999 -99.9 -99.99 -9.99
2019/08/19 06:30 EDT    2.16   2.38 -999 -999 -999 -99.9  84.0 -999.9 -9.9 -9.999 -99.9 -99.99 -9.99
2019/08/19 06:36 EDT    2.13   2.35 -999 -999 -999 -99.9  84.0 -999.9 -9.9 -9.999 -99.9 -99.99 -9.99
2019/08/19 06:42 EDT    2.11   2.33 -999 -999 -999 -99.9  84.0 -999.9 -9.9 -9.999 -99.9 -99.99 -9.99
2019/08/19 06:48 EDT    2.08   2.29 -999 -999 -999 -99.9  84.0 -999.9 -9.9 -9.999 -99.9 -99.99 -9.99
2019/08/19 06:54 EDT    2.05   2.26 -999 -999 -999 -99.9  84.0 -999.9 -9.9 -9.999 -99.9 -99.99 -9.99
2019/08/19 07:00 EDT    2.02   2.23 -999 -999 -999 -99.9  84.0 -999.9 -9.9 -9.999 -99.9 -99.99 -9.99
2019/08/19 07:06 EDT    1.99   2.21 -999 -999 -999 -99.9  84.0 -999.9 -9.9 -9.999 -99.9 -99.99 -9.99
2019/08/19 07:12 EDT    1.95   2.18 -999 -999 -999 -99.9  84.0 -999.9 -9.9 -9.999 -99.9 -99.99 -9.99
2019/08/19 07:18 EDT    1.92   2.15 -999 -999 -999 -99.9  84.2 -999.9 -9.9 -9.999 -99.9 -99.99 -9.99
2019/08/19 07:24 EDT    1.88   2.13 -999 -999 -999 -99.9  84.2 -999.9 -9.9 -9.999 -99.9 -99.99 -9.99
2019/08/19 07:30 EDT    1.85   2.11 -999 -999 -999 -99.9  84.2 -999.9 -9.9 -9.999 -99.9 -99.99 -9.99
2019/08/19 07:36 EDT    1.81   2.08 -999 -999 -999 -99.9  84.2 -999.9 -9.9 -9.999 -99.9 -99.99 -9.99
2019/08/19 07:42 EDT    1.77   2.05 -999 -999 -999 -99.9  84.0 -999.9 -9.9 -9.999 -99.9 -99.99 -9.99
2019/08/19 07:48 EDT    1.73   2.02 -999 -999 -999 -99.9  84.0 -999.9 -9.9 -9.999 -99.9 -99.99 -9.99
2019/08/19 07:54 EDT    1.69   2.01 -999 -999 -999 -99.9  84.0 -999.9 -9.9 -9.999 -99.9 -99.99 -9.99
2019/08/19 08:00 EDT    1.65   1.99 -999 -999 -999 -99.9  84.0 -999.9 -9.9 -9.999 -99.9 -99.99 -9.99
2019/08/19 08:06 EDT    1.61   1.96 -999 -999 -999 -99.9  84.0 -999.9 -9.9 -9.999 -99.9 -99.99 -9.99
2019/08/19 08:12 EDT    1.57   1.94 -999 -999 -999 -99.9  84.0 -999.9 -9.9 -9.999 -99.9 -99.99 -9.99
2019/08/19 08:18 EDT    1.53   1.91 -999 -999 -999 -99.9  83.8 -999.9 -9.9 -9.999 -99.9 -99.99 -9.99
2019/08/19 08:24 EDT    1.49   1.89 -999 -999 -999 -99.9  83.8 -999.9 -9.9 -9.999 -99.9 -99.99 -9.99
2019/08/19 08:30 EDT    1.46   1.87 -999 -999 -999 -99.9  83.8 -999.9 -9.9 -9.999 -99.9 -99.99 -9.99
2019/08/19 08:36 EDT    1.42   1.84 -999 -999 -999 -99.9  83.7 -999.9 -9.9 -9.999 -99.9 -99.99 -9.99
2019/08/19 08:42 EDT    1.38   1.81 -999 -999 -999 -99.9  83.7 -999.9 -9.9 -9.999 -99.9 -99.99 -9.99
2019/08/19 08:48 EDT    1.35   1.79 -999 -999 -999 -99.9  83.7 -999.9 -9.9 -9.999 -99.9 -99.99 -9.99
2019/08/19 08:54 EDT    1.32   1.76 -999 -999 -999 -99.9  83.7 -999.9 -9.9 -9.999 -99.9 -99.99 -9.99
2019/08/19 09:00 EDT    1.28   1.74 -999 -999 -999 -99.9  83.7 -999.9 -9.9 -9.999 -99.9 -99.99 -9.99
2019/08/19 09:06 EDT    1.25   1.71 -999 -999 -999 -99.9  83.7 -999.9 -9.9 -9.999 -99.9 -99.99 -9.99
2019/08/19 09:12 EDT    1.23   1.68 -999 -999 -999 -99.9  83.5 -999.9 -9.9 -9.999 -99.9 -99.99 -9.99
2019/08/19 09:18 EDT    1.20   1.64 -999 -999 -999 -99.9  83.5 -999.9 -9.9 -9.999 -99.9 -99.99 -9.99
2019/08/19 09:24 EDT    1.17   1.61 -999 -999 -999 -99.9  83.5 -999.9 -9.9 -9.999 -99.9 -99.99 -9.99
2019/08/19 09:30 EDT    1.15   1.59 -999 -999 -999 -99.9  83.5 -999.9 -9.9 -9.999 -99.9 -99.99 -9.99
2019/08/19 09:36 EDT    1.13   1.57 -999 -999 -999 -99.9  83.3 -999.9 -9.9 -9.999 -99.9 -99.99 -9.99
2019/08/19 09:42 EDT    1.10   1.53 -999 -999 -999 -99.9  83.3 -999.9 -9.9 -9.999 -99.9 -99.99 -9.99
2019/08/19 09:48 EDT    1.09   1.50 -999 -999 -999 -99.9  83.3 -999.9 -9.9 -9.999 -99.9 -99.99 -9.99
2019/08/19 09:54 EDT    1.07   1.47 -999 -999 -999 -99.9  83.3 -999.9 -9.9 -9.999 -99.9 -99.99 -9.99
2019/08/19 10:00 EDT    1.05   1.45 -999 -999 -999 -99.9  83.3 -999.9 -9.9 -9.999 -99.9 -99.99 -9.99
2019/08/19 10:06 EDT    1.04   1.42 -999 -999 -999 -99.9  83.1 -999.9 -9.9 -9.999 -99.9 -99.99 -9.99
2019/08/19 10:12 EDT    1.02   1.41 -999 -999 -999 -99.9  83.1 -999.9 -9.9 -9.999 -99.9 -99.99 -9.99
2019/08/19 10:18 EDT    1.01   1.39 -999 -999 -999 -99.9  83.1 -999.9 -9.9 -9.999 -99.9 -99.99 -9.99
2019/08/19 10:24 EDT    1.00   1.37 -999 -999 -999 -99.9  83.1 -999.9 -9.9 -9.999 -99.9 -99.99 -9.99
2019/08/19 10:30 EDT    0.99   1.36 -999 -999 -999 -99.9  83.1 -999.9 -9.9 -9.999 -99.9 -99.99 -9.99
2019/08/19 10:36 EDT    0.98   1.35 -999 -999 -999 -99.9  83.1 -999.9 -9.9 -9.999 -99.9 -99.99 -9.99
2019/08/19 10:42 EDT    0.98   1.34 -999 -999 -999 -99.9  83.1 -999.9 -9.9 -9.999 -99.9 -99.99 -9.99
2019/08/19 10:48 EDT    0.97   1.34 -999 -999 -999 -99.9  82.9 -999.9 -9.9 -9.999 -99.9 -99.99 -9.99
2019/08/19 10:54 EDT    0.97   1.34 -999 -999 -999 -99.9  82.9 -999.9 -9.9 -9.999 -99.9 -99.99 -9.99
2019/08/19 11:00 EDT    0.97   1.35 -999 -999 -999 -99.9  82.9 -999.9 -9.9 -9.999 -99.9 -99.99 -9.99
2019/08/19 11:06 EDT    0.97   1.35 -999 -999 -999 -99.9  82.9 -999.9 -9.9 -9.999 -99.9 -99.99 -9.99
2019/08/19 11:12 EDT    0.97   1.35 -999 -999 -999 -99.9  82.9 -999.9 -9.9 -9.999 -99.9 -99.99 -9.99
2019/08/19 11:18 EDT    0.98   1.35 -999 -999 -999 -99.9  82.9 -999.9 -9.9 -9.999 -99.9 -99.99 -9.99
2019/08/19 11:24 EDT    0.98   1.36 -999 -999 -999 -99.9  82.9 -999.9 -9.9 -9.999 -99.9 -99.99 -9.99
2019/08/19 11:30 EDT    0.99   1.38 -999 -999 -999 -99.9  82.9 -999.9 -9.9 -9.999 -99.9 -99.99 -9.99
2019/08/19 11:36 EDT    1.00   1.39 -999 -999 -999 -99.9  82.9 -999.9 -9.9 -9.999 -99.9 -99.99 -9.99
2019/08/19 11:42 EDT    1.01   1.39 -999 -999 -999 -99.9  82.9 -999.9 -9.9 -9.999 -99.9 -99.99 -9.99
2019/08/19 11:48 EDT    1.02   1.42 -999 -999 -999 -99.9  83.1 -999.9 -9.9 -9.999 -99.9 -99.99 -9.99
2019/08/19 11:54 EDT    1.04   1.43 -999 -999 -999 -99.9  83.1 -999.9 -9.9 -9.999 -99.9 -99.99 -9.99
2019/08/19 12:00 EDT    1.06   1.45 -999 -999 -999 -99.9  83.1 -999.9 -9.9 -9.999 -99.9 -99.99 -9.99
2019/08/19 12:06 EDT    1.08   1.48 -999 -999 -999 -99.9  83.1 -999.9 -9.9 -9.999 -99.9 -99.99 -9.99
2019/08/19 12:12 EDT    1.10   1.51 -999 -999 -999 -99.9  83.1 -999.9 -9.9 -9.999 -99.9 -99.99 -9.99
2019/08/19 12:18 EDT    1.13   1.54 -999 -999 -999 -99.9  83.3 -999.9 -9.9 -9.999 -99.9 -99.99 -9.99
2019/08/19 12:24 EDT    1.16   1.55 -999 -999 -999 -99.9  83.3 -999.9 -9.9 -9.999 -99.9 -99.99 -9.99
2019/08/19 12:30 EDT    1.19   1.59 -999 -999 -999 -99.9  83.3 -999.9 -9.9 -9.999 -99.9 -99.99 -9.99
2019/08/19 12:36 EDT    1.22   1.62 -999 -999 -999 -99.9  83.5 -999.9 -9.9 -9.999 -99.9 -99.99 -9.99
2019/08/19 12:42 EDT    1.25   1.62 -999 -999 -999 -99.9  83.7 -999.9 -9.9 -9.999 -99.9 -99.99 -9.99
2019/08/19 12:48 EDT    1.29   1.67 -999 -999 -999 -99.9  83.8 -999.9 -9.9 -9.999 -99.9 -99.99 -9.99
2019/08/19 12:54 EDT    1.33   1.72 -999 -999 -999 -99.9  83.8 -999.9 -9.9 -9.999 -99.9 -99.99 -9.99
2019/08/19 13:00 EDT    1.37   1.75 -999 -999 -999 -99.9  83.8 -999.9 -9.9 -9.999 -99.9 -99.99 -9.99
2019/08/19 13:06 EDT    1.42   1.79 -999 -999 -999 -99.9  83.8 -999.9 -9.9 -9.999 -99.9 -99.99 -9.99
2019/08/19 13:12 EDT    1.46   1.83 -999 -999 -999 -99.9  83.5 -999.9 -9.9 -9.999 -99.9 -99.99 -9.99
2019/08/19 13:18 EDT    1.51   1.89 -999 -999 -999 -99.9  83.5 -999.9 -9.9 -9.999 -99.9 -99.99 -9.99
2019/08/19 13:24 EDT    1.56   1.95 -999 -999 -999 -99.9  83.5 -999.9 -9.9 -9.999 -99.9 -99.99 -9.99
2019/08/19 13:30 EDT    1.61   1.99 -999 -999 -999 -99.9  83.5 -999.9 -9.9 -9.999 -99.9 -99.99 -9.99
2019/08/19 13:36 EDT    1.66   2.04 -999 -999 -999 -99.9  83.5 -999.9 -9.9 -9.999 -99.9 -99.99 -9.99
2019/08/19 13:42 EDT    1.71   2.10 -999 -999 -999 -99.9  83.5 -999.9 -9.9 -9.999 -99.9 -99.99 -9.99
2019/08/19 13:48 EDT    1.76   2.14 -999 -999 -999 -99.9  83.5 -999.9 -9.9 -9.999 -99.9 -99.99 -9.99
2019/08/19 13:54 EDT    1.82   2.17 -999 -999 -999 -99.9  83.7 -999.9 -9.9 -9.999 -99.9 -99.99 -9.99
2019/08/19 14:00 EDT    1.87   2.23 -999 -999 -999 -99.9  83.7 -999.9 -9.9 -9.999 -99.9 -99.99 -9.99
2019/08/19 14:06 EDT    1.92   2.29 -999 -999 -999 -99.9  83.8 -999.9 -9.9 -9.999 -99.9 -99.99 -9.99
2019/08/19 14:12 EDT    1.97   2.33 -999 -999 -999 -99.9  84.0 -999.9 -9.9 -9.999 -99.9 -99.99 -9.99
2019/08/19 14:18 EDT    2.02   2.37 -999 -999 -999 -99.9  84.0 -999.9 -9.9 -9.999 -99.9 -99.99 -9.99
2019/08/19 14:24 EDT    2.08   2.42 -999 -999 -999 -99.9  84.2 -999.9 -9.9 -9.999 -99.9 -99.99 -9.99
2019/08/19 14:30 EDT    2.12   2.46 -999 -999 -999 -99.9  84.4 -999.9 -9.9 -9.999 -99.9 -99.99 -9.99
2019/08/19 14:36 EDT    2.17   2.50 -999 -999 -999 -99.9  84.4 -999.9 -9.9 -9.999 -99.9 -99.99 -9.99
2019/08/19 14:42 EDT    2.22   2.54 -999 -999 -999 -99.9  84.4 -999.9 -9.9 -9.999 -99.9 -99.99 -9.99
2019/08/19 14:48 EDT    2.26   2.59 -999 -999 -999 -99.9  84.4 -999.9 -9.9 -9.999 -99.9 -99.99 -9.99
2019/08/19 14:54 EDT    2.31   2.64 -999 -999 -999 -99.9  84.4 -999.9 -9.9 -9.999 -99.9 -99.99 -9.99
2019/08/19 15:00 EDT    2.35   2.70 -999 -999 -999 -99.9  84.4 -999.9 -9.9 -9.999 -99.9 -99.99 -9.99
2019/08/19 15:06 EDT    2.39   2.74 -999 -999 -999 -99.9  84.6 -999.9 -9.9 -9.999 -99.9 -99.99 -9.99
2019/08/19 15:12 EDT    2.42   2.77 -999 -999 -999 -99.9  84.7 -999.9 -9.9 -9.999 -99.9 -99.99 -9.99
2019/08/19 15:18 EDT    2.46   2.80 -999 -999 -999 -99.9  84.7 -999.9 -9.9 -9.999 -99.9 -99.99 -9.99
2019/08/19 15:24 EDT    2.49   2.82 -999 -999 -999 -99.9  84.7 -999.9 -9.9 -9.999 -99.9 -99.99 -9.99
2019/08/19 15:30 EDT    2.52   2.85 -999 -999 -999 -99.9  84.7 -999.9 -9.9 -9.999 -99.9 -99.99 -9.99
2019/08/19 15:36 EDT    2.54   2.87 -999 -999 -999 -99.9  84.7 -999.9 -9.9 -9.999 -99.9 -99.99 -9.99
2019/08/19 15:42 EDT    2.57   2.87 -999 -999 -999 -99.9  84.7 -999.9 -9.9 -9.999 -99.9 -99.99 -9.99
2019/08/19 15:48 EDT    2.59   2.86 -999 -999 -999 -99.9  84.7 -999.9 -9.9 -9.999 -99.9 -99.99 -9.99
2019/08/19 15:54 EDT    2.61   2.90 -999 -999 -999 -99.9  84.7 -999.9 -9.9 -9.999 -99.9 -99.99 -9.99
2019/08/19 16:00 EDT    2.63   2.96 -999 -999 -999 -99.9  84.7 -999.9 -9.9 -9.999 -99.9 -99.99 -9.99
2019/08/19 16:06 EDT    2.64   2.96 -999 -999 -999 -99.9  84.7 -999.9 -9.9 -9.999 -99.9 -99.99 -9.99
2019/08/19 16:12 EDT    2.65   2.92 -999 -999 -999 -99.9  84.7 -999.9 -9.9 -9.999 -99.9 -99.99 -9.99
2019/08/19 16:18 EDT    2.66   2.93 -999 -999 -999 -99.9  84.7 -999.9 -9.9 -9.999 -99.9 -99.99 -9.99
2019/08/19 16:24 EDT    2.67   2.93 -999 -999 -999 -99.9  84.7 -999.9 -9.9 -9.999 -99.9 -99.99 -9.99
2019/08/19 16:30 EDT    2.68   2.94 -999 -999 -999 -99.9  84.7 -999.9 -9.9 -9.999 -99.9 -99.99 -9.99
2019/08/19 16:36 EDT    2.69   2.96 -999 -999 -999 -99.9  84.7 -999.9 -9.9 -9.999 -99.9 -99.99 -9.99
2019/08/19 16:42 EDT    2.69   2.95 -999 -999 -999 -99.9  84.7 -999.9 -9.9 -9.999 -99.9 -99.99 -9.99
2019/08/19 16:48 EDT    2.69   2.98 -999 -999 -999 -99.9  84.7 -999.9 -9.9 -9.999 -99.9 -99.99 -9.99
2019/08/19 16:54 EDT    2.69   3.02 -999 -999 -999 -99.9  84.7 -999.9 -9.9 -9.999 -99.9 -99.99 -9.99
2019/08/19 17:00 EDT    2.69   3.03 -999 -999 -999 -99.9  84.7 -999.9 -9.9 -9.999 -99.9 -99.99 -9.99
2019/08/19 17:06 EDT    2.69   3.05 -999 -999 -999 -99.9  84.7 -999.9 -9.9 -9.999 -99.9 -99.99 -9.99
2019/08/19 17:12 EDT    2.68   3.07 -999 -999 -999 -99.9  84.7 -999.9 -9.9 -9.999 -99.9 -99.99 -9.99
2019/08/19 17:18 EDT    2.67   3.08 -999 -999 -999 -99.9  84.7 -999.9 -9.9 -9.999 -99.9 -99.99 -9.99
2019/08/19 17:24 EDT    2.67   3.10 -999 -999 -999 -99.9  84.7 -999.9 -9.9 -9.999 -99.9 -99.99 -9.99
2019/08/19 17:30 EDT    2.66   3.10 -999 -999 -999 -99.9  84.7 -999.9 -9.9 -9.999 -99.9 -99.99 -9.99
2019/08/19 17:36 EDT    2.65   3.12 -999 -999 -999 -99.9  84.7 -999.9 -9.9 -9.999 -99.9 -99.99 -9.99
2019/08/19 17:42 EDT    2.63   3.12 -999 -999 -999 -99.9  84.7 -999.9 -9.9 -9.999 -99.9 -99.99 -9.99
2019/08/19 17:48 EDT    2.62   3.10 -999 -999 -999 -99.9  84.7 -999.9 -9.9 -9.999 -99.9 -99.99 -9.99
2019/08/19 17:54 EDT    2.61   3.08 -999 -999 -999 -99.9  84.7 -999.9 -9.9 -9.999 -99.9 -99.99 -9.99
2019/08/19 18:00 EDT    2.59   3.10 -999 -999 -999 -99.9  84.7 -999.9 -9.9 -9.999 -99.9 -99.99 -9.99
2019/08/19 18:06 EDT    2.57   3.07 -999 -999 -999 -99.9  84.7 -999.9 -9.9 -9.999 -99.9 -99.99 -9.99
2019/08/19 18:12 EDT    2.55   3.02 -999 -999 -999 -99.9  84.7 -999.9 -9.9 -9.999 -99.9 -99.99 -9.99
2019/08/19 18:18 EDT    2.53   2.99 -999 -999 -999 -99.9  84.7 -999.9 -9.9 -9.999 -99.9 -99.99 -9.99
2019/08/19 18:24 EDT    2.50   2.97 -999 -999 -999 -99.9  84.7 -999.9 -9.9 -9.999 -99.9 -99.99 -9.99
2019/08/19 18:30 EDT    2.47   2.93 -999 -999 -999 -99.9  84.7 -999.9 -9.9 -9.999 -99.9 -99.99 -9.99
2019/08/19 18:36 EDT    2.45   2.86 -999 -999 -999 -99.9  84.7 -999.9 -9.9 -9.999 -99.9 -99.99 -9.99
2019/08/19 18:42 EDT    2.42   2.81 -999 -999 -999 -99.9  84.7 -999.9 -9.9 -9.999 -99.9 -99.99 -9.99
2019/08/19 18:48 EDT    2.38   2.80 -999 -999 -999 -99.9  84.7 -999.9 -9.9 -9.999 -99.9 -99.99 -9.99
2019/08/19 18:54 EDT    2.35   2.78 -999 -999 -999 -99.9  84.7 -999.9 -9.9 -9.999 -99.9 -99.99 -9.99
2019/08/19 19:00 EDT    2.31   2.73 -999 -999 -999 -99.9  84.7 -999.9 -9.9 -9.999 -99.9 -99.99 -9.99
2019/08/19 19:06 EDT    2.27   2.68 -999 -999 -999 -99.9  84.7 -999.9 -9.9 -9.999 -99.9 -99.99 -9.99
2019/08/19 19:12 EDT    2.23   2.64 -999 -999 -999 -99.9  84.7 -999.9 -9.9 -9.999 -99.9 -99.99 -9.99
2019/08/19 19:18 EDT    2.19   2.60 -999 -999 -999 -99.9  84.7 -999.9 -9.9 -9.999 -99.9 -99.99 -9.99
2019/08/19 19:24 EDT    2.15   2.58 -999 -999 -999 -99.9  84.7 -999.9 -9.9 -9.999 -99.9 -99.99 -9.99
2019/08/19 19:30 EDT    2.10   2.54 -999 -999 -999 -99.9  84.7 -999.9 -9.9 -9.999 -99.9 -99.99 -9.99
2019/08/19 19:36 EDT    2.06   2.49 -999 -999 -999 -99.9  84.7 -999.9 -9.9 -9.999 -99.9 -99.99 -9.99
2019/08/19 19:42 EDT    2.01   2.45 -999 -999 -999 -99.9  84.7 -999.9 -9.9 -9.999 -99.9 -99.99 -9.99
2019/08/19 19:48 EDT    1.96   2.43 -999 -999 -999 -99.9  84.7 -999.9 -9.9 -9.999 -99.9 -99.99 -9.99
2019/08/19 19:54 EDT    1.91   2.39 -999 -999 -999 -99.9  84.7 -999.9 -9.9 -9.999 -99.9 -99.99 -9.99
2019/08/19 20:00 EDT    1.86   2.33 -999 -999 -999 -99.9  84.7 -999.9 -9.9 -9.999 -99.9 -99.99 -9.99
2019/08/19 20:06 EDT    1.81   2.29 -999 -999 -999 -99.9  84.7 -999.9 -9.9 -9.999 -99.9 -99.99 -9.99
2019/08/19 20:12 EDT    1.76   2.26 -999 -999 -999 -99.9  84.7 -999.9 -9.9 -9.999 -99.9 -99.99 -9.99
2019/08/19 20:18 EDT    1.71   2.22 -999 -999 -999 -99.9  84.6 -999.9 -9.9 -9.999 -99.9 -99.99 -9.99
2019/08/19 20:24 EDT    1.66   2.14 -999 -999 -999 -99.9  84.6 -999.9 -9.9 -9.999 -99.9 -99.99 -9.99
2019/08/19 20:30 EDT    1.61   2.08 -999 -999 -999 -99.9  84.6 -999.9 -9.9 -9.999 -99.9 -99.99 -9.99
2019/08/19 20:36 EDT    1.56   2.07 -999 -999 -999 -99.9  84.6 -999.9 -9.9 -9.999 -99.9 -99.99 -9.99
2019/08/19 20:42 EDT    1.51   2.01 -999 -999 -999 -99.9  84.6 -999.9 -9.9 -9.999 -99.9 -99.99 -9.99
2019/08/19 20:48 EDT    1.46   1.94 -999 -999 -999 -99.9  84.4 -999.9 -9.9 -9.999 -99.9 -99.99 -9.99
2019/08/19 20:54 EDT    1.41   1.89 -999 -999 -999 -99.9  84.4 -999.9 -9.9 -9.999 -99.9 -99.99 -9.99
2019/08/19 21:00 EDT    1.36   1.83 -999 -999 -999 -99.9  84.4 -999.9 -9.9 -9.999 -99.9 -99.99 -9.99
2019/08/19 21:06 EDT    1.31   1.78 -999 -999 -999 -99.9  84.4 -999.9 -9.9 -9.999 -99.9 -99.99 -9.99
2019/08/19 21:12 EDT    1.27   1.72 -999 -999 -999 -99.9  84.4 -999.9 -9.9 -9.999 -99.9 -99.99 -9.99
2019/08/19 21:18 EDT    1.23   1.67 -999 -999 -999 -99.9  84.2 -999.9 -9.9 -9.999 -99.9 -99.99 -9.99
2019/08/19 21:24 EDT    1.18   1.62 -999 -999 -999 -99.9  84.2 -999.9 -9.9 -9.999 -99.9 -99.99 -9.99
2019/08/19 21:30 EDT    1.14   1.59 -999 -999 -999 -99.9  84.2 -999.9 -9.9 -9.999 -99.9 -99.99 -9.99
2019/08/19 21:36 EDT    1.11   1.54 -999 -999 -999 -99.9  84.2 -999.9 -9.9 -9.999 -99.9 -99.99 -9.99
2019/08/19 21:42 EDT    1.07   1.50 -999 -999 -999 -99.9  84.2 -999.9 -9.9 -9.999 -99.9 -99.99 -9.99
2019/08/19 21:48 EDT    1.03   1.46 -999 -999 -999 -99.9  84.2 -999.9 -9.9 -9.999 -99.9 -99.99 -9.99
2019/08/19 21:54 EDT    1.00   1.43 -999 -999 -999 -99.9  84.0 -999.9 -9.9 -9.999 -99.9 -99.99 -9.99
2019/08/19 22:00 EDT    0.97   1.39 -999 -999 -999 -99.9  84.0 -999.9 -9.9 -9.999 -99.9 -99.99 -9.99
2019/08/19 22:06 EDT    0.94   1.37 -999 -999 -999 -99.9  84.0 -999.9 -9.9 -9.999 -99.9 -99.99 -9.99
2019/08/19 22:12 EDT    0.92   1.32 -999 -999 -999 -99.9  84.0 -999.9 -9.9 -9.999 -99.9 -99.99 -9.99
2019/08/19 22:18 EDT    0.89   1.28 -999 -999 -999 -99.9  84.0 -999.9 -9.9 -9.999 -99.9 -99.99 -9.99
2019/08/19 22:24 EDT    0.87   1.26 -999 -999 -999 -99.9  84.0 -999.9 -9.9 -9.999 -99.9 -99.99 -9.99
2019/08/19 22:30 EDT    0.85   1.22 -999 -999 -999 -99.9  84.0 -999.9 -9.9 -9.999 -99.9 -99.99 -9.99
2019/08/19 22:36 EDT    0.83   1.18 -999 -999 -999 -99.9  83.8 -999.9 -9.9 -9.999 -99.9 -99.99 -9.99
2019/08/19 22:42 EDT    0.81   1.16 -999 -999 -999 -99.9  83.8 -999.9 -9.9 -9.999 -99.9 -99.99 -9.99
2019/08/19 22:48 EDT    0.79   1.13 -999 -999 -999 -99.9  83.8 -999.9 -9.9 -9.999 -99.9 -99.99 -9.99
2019/08/19 22:54 EDT    0.78   1.10 -999 -999 -999 -99.9  83.8 -999.9 -9.9 -9.999 -99.9 -99.99 -9.99
2019/08/19 23:00 EDT    0.77   1.06 -999 -999 -999 -99.9  83.8 -999.9 -9.9 -9.999 -99.9 -99.99 -9.99
2019/08/19 23:06 EDT    0.75   1.04 -999 -999 -999 -99.9  83.8 -999.9 -9.9 -9.999 -99.9 -99.99 -9.99
2019/08/19 23:12 EDT    0.75   1.02 -999 -999 -999 -99.9  83.8 -999.9 -9.9 -9.999 -99.9 -99.99 -9.99
2019/08/19 23:18 EDT    0.74   1.00 -999 -999 -999 -99.9  83.8 -999.9 -9.9 -9.999 -99.9 -99.99 -9.99
2019/08/19 23:24 EDT    0.73   0.98 -999 -999 -999 -99.9  83.8 -999.9 -9.9 -9.999 -99.9 -99.99 -9.99
2019/08/19 23:30 EDT    0.73   0.97 -999 -999 -999 -99.9  83.7 -999.9 -9.9 -9.999 -99.9 -99.99 -9.99
2019/08/19 23:36 EDT    0.73   0.96 -999 -999 -999 -99.9  83.7 -999.9 -9.9 -9.999 -99.9 -99.99 -9.99
2019/08/19 23:42 EDT    0.73   0.95 -999 -999 -999 -99.9  83.7 -999.9 -9.9 -9.999 -99.9 -99.99 -9.99
2019/08/19 23:48 EDT    0.73   0.95 -999 -999 -999 -99.9  83.7 -999.9 -9.9 -9.999 -99.9 -99.99 -9.99
2019/08/19 23:54 EDT    0.74   0.95 -999 -999 -999 -99.9  83.7 -999.9 -9.9 -9.999 -99.9 -99.99 -9.99
2019/08/20 00:00 EDT    0.75   0.96 -999 -999 -999 -99.9  83.7 -999.9 -9.9 -9.999 -99.9 -99.99 -9.99
2019/08/20 00:06 EDT    0.75   0.97 -999 -999 -999 -99.9  83.7 -999.9 -9.9 -9.999 -99.9 -99.99 -9.99
2019/08/20 00:12 EDT    0.77   0.99 -999 -999 -999 -99.9  83.7 -999.9 -9.9 -9.999 -99.9 -99.99 -9.99
2019/08/20 00:18 EDT    0.78   1.02 -999 -999 -999 -99.9  83.7 -999.9 -9.9 -9.999 -99.9 -99.99 -9.99
2019/08/20 00:24 EDT    0.80   1.04 -999 -999 -999 -99.9  83.5 -999.9 -9.9 -9.999 -99.9 -99.99 -9.99
2019/08/20 00:30 EDT    0.82   1.08 -999 -999 -999 -99.9  83.5 -999.9 -9.9 -9.999 -99.9 -99.99 -9.99
2019/08/20 00:36 EDT    0.84   1.12 -999 -999 -999 -99.9  83.3 -999.9 -9.9 -9.999 -99.9 -99.99 -9.99
2019/08/20 00:42 EDT    0.86   1.15 -999 -999 -999 -99.9  83.3 -999.9 -9.9 -9.999 -99.9 -99.99 -9.99
2019/08/20 00:48 EDT    0.89   1.18 -999 -999 -999 -99.9  83.3 -999.9 -9.9 -9.999 -99.9 -99.99 -9.99
2019/08/20 00:54 EDT    0.92   1.25 -999 -999 -999 -99.9  83.3 -999.9 -9.9 -9.999 -99.9 -99.99 -9.99
2019/08/20 01:00 EDT    0.95   1.34 -999 -999 -999 -99.9  83.3 -999.9 -9.9 -9.999 -99.9 -99.99 -9.99
2019/08/20 01:06 EDT    0.98   1.35 -999 -999 -999 -99.9  83.3 -999.9 -9.9 -9.999 -99.9 -99.99 -9.99
2019/08/20 01:12 EDT    1.02   1.38 -999 -999 -999 -99.9  83.3 -999.9 -9.9 -9.999 -99.9 -99.99 -9.99
2019/08/20 01:18 EDT    1.06   1.45 -999 -999 -999 -99.9  83.5 -999.9 -9.9 -9.999 -99.9 -99.99 -9.99
2019/08/20 01:24 EDT    1.10   1.52 -999 -999 -999 -99.9  83.5 -999.9 -9.9 -9.999 -99.9 -99.99 -9.99
2019/08/20 01:30 EDT    1.14   1.55 -999 -999 -999 -99.9  83.5 -999.9 -9.9 -9.999 -99.9 -99.99 -9.99
2019/08/20 01:36 EDT    1.19   1.57 -999 -999 -999 -99.9  83.5 -999.9 -9.9 -9.999 -99.9 -99.99 -9.99
2019/08/20 01:42 EDT    1.23   1.65 -999 -999 -999 -99.9  83.5 -999.9 -9.9 -9.999 -99.9 -99.99 -9.99
2019/08/20 01:48 EDT    1.28   1.70 -999 -999 -999 -99.9  83.5 -999.9 -9.9 -9.999 -99.9 -99.99 -9.99
2019/08/20 01:54 EDT    1.33   1.69 -999 -999 -999 -99.9  83.5 -999.9 -9.9 -9.999 -99.9 -99.99 -9.99
2019/08/20 02:00 EDT    1.38   1.79 -999 -999 -999 -99.9  84.4 -999.9 -9.9 -9.999 -99.9 -99.99 -9.99
2019/08/20 02:06 EDT    1.43   1.83 -999 -999 -999 -99.9  84.6 -999.9 -9.9 -9.999 -99.9 -99.99 -9.99
2019/08/20 02:12 EDT    1.49   1.84 -999 -999 -999 -99.9  84.4 -999.9 -9.9 -9.999 -99.9 -99.99 -9.99
2019/08/20 02:18 EDT    1.54   1.88 -999 -999 -999 -99.9  84.2 -999.9 -9.9 -9.999 -99.9 -99.99 -9.99
2019/08/20 02:24 EDT    1.59   1.91 -999 -999 -999 -99.9  84.0 -999.9 -9.9 -9.999 -99.9 -99.99 -9.99
2019/08/20 02:30 EDT    1.64   1.98 -999 -999 -999 -99.9  84.0 -999.9 -9.9 -9.999 -99.9 -99.99 -9.99
2019/08/20 02:36 EDT    1.69   2.00 -999 -999 -999 -99.9  84.0 -999.9 -9.9 -9.999 -99.9 -99.99 -9.99
2019/08/20 02:42 EDT    1.74   2.05 -999 -999 -999 -99.9  84.0 -999.9 -9.9 -9.999 -99.9 -99.99 -9.99
2019/08/20 02:48 EDT    1.80   2.08 -999 -999 -999 -99.9  84.0 -999.9 -9.9 -9.999 -99.9 -99.99 -9.99
2019/08/20 02:54 EDT    1.84   2.11 -999 -999 -999 -99.9  84.0 -999.9 -9.9 -9.999 -99.9 -99.99 -9.99
2019/08/20 03:00 EDT    1.89   2.15 -999 -999 -999 -99.9  84.0 -999.9 -9.9 -9.999 -99.9 -99.99 -9.99
2019/08/20 03:06 EDT    1.94   2.18 -999 -999 -999 -99.9  84.0 -999.9 -9.9 -9.999 -99.9 -99.99 -9.99
2019/08/20 03:12 EDT    1.98   2.21 -999 -999 -999 -99.9  84.0 -999.9 -9.9 -9.999 -99.9 -99.99 -9.99
2019/08/20 03:18 EDT    2.02   2.23 -999 -999 -999 -99.9  84.0 -999.9 -9.9 -9.999 -99.9 -99.99 -9.99
2019/08/20 03:24 EDT    2.07   2.24 -999 -999 -999 -99.9  84.0 -999.9 -9.9 -9.999 -99.9 -99.99 -9.99
2019/08/20 03:30 EDT    2.10   2.28 -999 -999 -999 -99.9  84.2 -999.9 -9.9 -9.999 -99.9 -99.99 -9.99
2019/08/20 03:36 EDT    2.14   2.28 -999 -999 -999 -99.9  84.2 -999.9 -9.9 -9.999 -99.9 -99.99 -9.99
2019/08/20 03:42 EDT    2.17   2.28 -999 -999 -999 -99.9  84.2 -999.9 -9.9 -9.999 -99.9 -99.99 -9.99
2019/08/20 03:48 EDT    2.21   2.31 -999 -999 -999 -99.9  84.2 -999.9 -9.9 -9.999 -99.9 -99.99 -9.99
2019/08/20 03:54 EDT    2.23   2.31 -999 -999 -999 -99.9  84.2 -999.9 -9.9 -9.999 -99.9 -99.99 -9.99
2019/08/20 04:00 EDT    2.26   2.31 -999 -999 -999 -99.9  84.4 -999.9 -9.9 -9.999 -99.9 -99.99 -9.99
2019/08/20 04:06 EDT    2.29   2.32 -999 -999 -999 -99.9  84.4 -999.9 -9.9 -9.999 -99.9 -99.99 -9.99
2019/08/20 04:12 EDT    2.31   2.34 -999 -999 -999 -99.9  84.4 -999.9 -9.9 -9.999 -99.9 -99.99 -9.99
2019/08/20 04:18 EDT    2.33   2.36 -999 -999 -999 -99.9  84.4 -999.9 -9.9 -9.999 -99.9 -99.99 -9.99
2019/08/20 04:24 EDT    2.35   2.37 -999 -999 -999 -99.9  84.4 -999.9 -9.9 -9.999 -99.9 -99.99 -9.99
2019/08/20 04:30 EDT    2.36   2.39 -999 -999 -999 -99.9  84.4 -999.9 -9.9 -9.999 -99.9 -99.99 -9.99
2019/08/20 04:36 EDT    2.38   2.42 -999 -999 -999 -99.9  84.4 -999.9 -9.9 -9.999 -99.9 -99.99 -9.99
2019/08/20 04:42 EDT    2.39   2.45 -999 -999 -999 -99.9  84.4 -999.9 -9.9 -9.999 -99.9 -99.99 -9.99
2019/08/20 04:48 EDT    2.40   2.46 -999 -999 -999 -99.9  84.4 -999.9 -9.9 -9.999 -99.9 -99.99 -9.99
2019/08/20 04:54 EDT    2.40   2.50 -999 -999 -999 -99.9  84.4 -999.9 -9.9 -9.999 -99.9 -99.99 -9.99
2019/08/20 05:00 EDT    2.41   2.54 -999 -999 -999 -99.9  84.6 -999.9 -9.9 -9.999 -99.9 -99.99 -9.99
2019/08/20 05:06 EDT    2.42   2.56 -999 -999 -999 -99.9  84.6 -999.9 -9.9 -9.999 -99.9 -99.99 -9.99
2019/08/20 05:12 EDT    2.42   2.60 -999 -999 -999 -99.9  84.6 -999.9 -9.9 -9.999 -99.9 -99.99 -9.99
2019/08/20 05:18 EDT    2.42   2.64 -999 -999 -999 -99.9  84.7 -999.9 -9.9 -9.999 -99.9 -99.99 -9.99
2019/08/20 05:24 EDT    2.42   2.67 -999 -999 -999 -99.9  84.7 -999.9 -9.9 -9.999 -99.9 -99.99 -9.99
2019/08/20 05:30 EDT    2.42   2.69 -999 -999 -999 -99.9  84.7 -999.9 -9.9 -9.999 -99.9 -99.99 -9.99
2019/08/20 05:36 EDT    2.42   2.75 -999 -999 -999 -99.9  84.9 -999.9 -9.9 -9.999 -99.9 -99.99 -9.99
2019/08/20 05:42 EDT    2.41   2.79 -999 -999 -999 -99.9  84.9 -999.9 -9.9 -9.999 -99.9 -99.99 -9.99
2019/08/20 05:48 EDT    2.41   2.80 -999 -999 -999 -99.9  84.9 -999.9 -9.9 -9.999 -99.9 -99.99 -9.99
2019/08/20 05:54 EDT    2.40   2.82 -999 -999 -999 -99.9  84.9 -999.9 -9.9 -9.999 -99.9 -99.99 -9.99
2019/08/20 06:00 EDT    2.40   2.83 -999 -999 -999 -99.9  84.9 -999.9 -9.9 -9.999 -99.9 -99.99 -9.99
2019/08/20 06:06 EDT    2.39   2.85 -999 -999 -999 -99.9  84.9 -999.9 -9.9 -9.999 -99.9 -99.99 -9.99
2019/08/20 06:12 EDT    2.38   2.85 -999 -999 -999 -99.9  84.9 -999.9 -9.9 -9.999 -99.9 -99.99 -9.99
2019/08/20 06:18 EDT    2.36   2.84 -999 -999 -999 -99.9  84.9 -999.9 -9.9 -9.999 -99.9 -99.99 -9.99
2019/08/20 06:24 EDT    2.35   2.85 -999 -999 -999 -99.9  84.9 -999.9 -9.9 -9.999 -99.9 -99.99 -9.99
2019/08/20 06:30 EDT    2.34   2.85 -999 -999 -999 -99.9  84.9 -999.9 -9.9 -9.999 -99.9 -99.99 -9.99
2019/08/20 06:36 EDT    2.32   2.84 -999 -999 -999 -99.9  84.9 -999.9 -9.9 -9.999 -99.9 -99.99 -9.99
2019/08/20 06:42 EDT    2.30   2.82 -999 -999 -999 -99.9  84.9 -999.9 -9.9 -9.999 -99.9 -99.99 -9.99
2019/08/20 06:48 EDT    2.28   2.80 -999 -999 -999 -99.9  84.9 -999.9 -9.9 -9.999 -99.9 -99.99 -9.99
2019/08/20 06:54 EDT    2.26   2.78 -999 -999 -999 -99.9  84.9 -999.9 -9.9 -9.999 -99.9 -99.99 -9.99
2019/08/20 07:00 EDT    2.24   2.77 -999 -999 -999 -99.9  84.7 -999.9 -9.9 -9.999 -99.9 -99.99 -9.99
2019/08/20 07:06 EDT    2.22   2.73 -999 -999 -999 -99.9  84.7 -999.9 -9.9 -9.999 -99.9 -99.99 -9.99
2019/08/20 07:12 EDT    2.19   2.70 -999 -999 -999 -99.9  84.7 -999.9 -9.9 -9.999 -99.9 -99.99 -9.99
2019/08/20 07:18 EDT    2.16   2.67 -999 -999 -999 -99.9  84.7 -999.9 -9.9 -9.999 -99.9 -99.99 -9.99
2019/08/20 07:24 EDT    2.13   2.64 -999 -999 -999 -99.9  84.7 -999.9 -9.9 -9.999 -99.9 -99.99 -9.99
2019/08/20 07:30 EDT    2.10   2.60 -999 -999 -999 -99.9  84.7 -999.9 -9.9 -9.999 -99.9 -99.99 -9.99
2019/08/20 07:36 EDT    2.07   2.57 -999 -999 -999 -99.9  84.7 -999.9 -9.9 -9.999 -99.9 -99.99 -9.99
2019/08/20 07:42 EDT    2.04   2.54 -999 -999 -999 -99.9  84.6 -999.9 -9.9 -9.999 -99.9 -99.99 -9.99
2019/08/20 07:48 EDT    2.00   2.50 -999 -999 -999 -99.9  84.6 -999.9 -9.9 -9.999 -99.9 -99.99 -9.99
2019/08/20 07:54 EDT    1.97   2.47 -999 -999 -999 -99.9  84.6 -999.9 -9.9 -9.999 -99.9 -99.99 -9.99
2019/08/20 08:00 EDT    1.93   2.42 -999 -999 -999 -99.9  84.6 -999.9 -9.9 -9.999 -99.9 -99.99 -9.99
2019/08/20 08:06 EDT    1.89   2.38 -999 -999 -999 -99.9  84.6 -999.9 -9.9 -9.999 -99.9 -99.99 -9.99
2019/08/20 08:12 EDT    1.85   2.34 -999 -999 -999 -99.9  84.6 -999.9 -9.9 -9.999 -99.9 -99.99 -9.99
2019/08/20 08:18 EDT    1.81   2.29 -999 -999 -999 -99.9  84.6 -999.9 -9.9 -9.999 -99.9 -99.99 -9.99
2019/08/20 08:24 EDT    1.77   2.23 -999 -999 -999 -99.9  84.6 -999.9 -9.9 -9.999 -99.9 -99.99 -9.99
2019/08/20 08:30 EDT    1.72   2.19 -999 -999 -999 -99.9  84.6 -999.9 -9.9 -9.999 -99.9 -99.99 -9.99
2019/08/20 08:36 EDT    1.68   2.14 -999 -999 -999 -99.9  84.6 -999.9 -9.9 -9.999 -99.9 -99.99 -9.99
2019/08/20 08:42 EDT    1.64   2.09 -999 -999 -999 -99.9  84.6 -999.9 -9.9 -9.999 -99.9 -99.99 -9.99
2019/08/20 08:48 EDT    1.60   2.04 -999 -999 -999 -99.9  84.6 -999.9 -9.9 -9.999 -99.9 -99.99 -9.99
2019/08/20 08:54 EDT    1.56   2.00 -999 -999 -999 -99.9  84.6 -999.9 -9.9 -9.999 -99.9 -99.99 -9.99
2019/08/20 09:00 EDT    1.51   1.96 -999 -999 -999 -99.9  84.6 -999.9 -9.9 -9.999 -99.9 -99.99 -9.99
2019/08/20 09:06 EDT    1.47   1.92 -999 -999 -999 -99.9  84.6 -999.9 -9.9 -9.999 -99.9 -99.99 -9.99
2019/08/20 09:12 EDT    1.43   1.89 -999 -999 -999 -99.9  84.6 -999.9 -9.9 -9.999 -99.9 -99.99 -9.99
2019/08/20 09:18 EDT    1.39   1.86 -999 -999 -999 -99.9  84.6 -999.9 -9.9 -9.999 -99.9 -99.99 -9.99
2019/08/20 09:24 EDT    1.36   1.82 -999 -999 -999 -99.9  84.6 -999.9 -9.9 -9.999 -99.9 -99.99 -9.99
2019/08/20 09:30 EDT    1.32   1.78 -999 -999 -999 -99.9  84.6 -999.9 -9.9 -9.999 -99.9 -99.99 -9.99
2019/08/20 09:36 EDT    1.28   1.75 -999 -999 -999 -99.9  84.6 -999.9 -9.9 -9.999 -99.9 -99.99 -9.99
2019/08/20 09:42 EDT    1.25   1.72 -999 -999 -999 -99.9  84.4 -999.9 -9.9 -9.999 -99.9 -99.99 -9.99
2019/08/20 09:48 EDT    1.22   1.67 -999 -999 -999 -99.9  84.4 -999.9 -9.9 -9.999 -99.9 -99.99 -9.99
2019/08/20 09:54 EDT    1.19   1.63 -999 -999 -999 -99.9  84.4 -999.9 -9.9 -9.999 -99.9 -99.99 -9.99
2019/08/20 10:00 EDT    1.16   1.59 -999 -999 -999 -99.9  84.2 -999.9 -9.9 -9.999 -99.9 -99.99 -9.99
2019/08/20 10:06 EDT    1.13   1.54 -999 -999 -999 -99.9  84.2 -999.9 -9.9 -9.999 -99.9 -99.99 -9.99
2019/08/20 10:12 EDT    1.10   1.49 -999 -999 -999 -99.9  84.0 -999.9 -9.9 -9.999 -99.9 -99.99 -9.99
2019/08/20 10:18 EDT    1.08   1.45 -999 -999 -999 -99.9  84.0 -999.9 -9.9 -9.999 -99.9 -99.99 -9.99
2019/08/20 10:24 EDT    1.06   1.42 -999 -999 -999 -99.9  84.0 -999.9 -9.9 -9.999 -99.9 -99.99 -9.99
2019/08/20 10:30 EDT    1.04   1.38 -999 -999 -999 -99.9  84.0 -999.9 -9.9 -9.999 -99.9 -99.99 -9.99
2019/08/20 10:36 EDT    1.02   1.33 -999 -999 -999 -99.9  83.8 -999.9 -9.9 -9.999 -99.9 -99.99 -9.99
2019/08/20 10:42 EDT    1.00   1.30 -999 -999 -999 -99.9  83.8 -999.9 -9.9 -9.999 -99.9 -99.99 -9.99
2019/08/20 10:48 EDT    0.99   1.27 -999 -999 -999 -99.9  83.8 -999.9 -9.9 -9.999 -99.9 -99.99 -9.99
2019/08/20 10:54 EDT    0.97   1.24 -999 -999 -999 -99.9  83.8 -999.9 -9.9 -9.999 -99.9 -99.99 -9.99
2019/08/20 11:00 EDT    0.96   1.21 -999 -999 -999 -99.9  83.8 -999.9 -9.9 -9.999 -99.9 -99.99 -9.99
2019/08/20 11:06 EDT    0.95   1.19 -999 -999 -999 -99.9  83.8 -999.9 -9.9 -9.999 -99.9 -99.99 -9.99
2019/08/20 11:12 EDT    0.94   1.17 -999 -999 -999 -99.9  83.8 -999.9 -9.9 -9.999 -99.9 -99.99 -9.99
2019/08/20 11:18 EDT    0.93   1.15 -999 -999 -999 -99.9  83.8 -999.9 -9.9 -9.999 -99.9 -99.99 -9.99
2019/08/20 11:24 EDT    0.93   1.13 -999 -999 -999 -99.9  83.8 -999.9 -9.9 -9.999 -99.9 -99.99 -9.99
2019/08/20 11:30 EDT    0.92   1.12 -999 -999 -999 -99.9  83.7 -999.9 -9.9 -9.999 -99.9 -99.99 -9.99
2019/08/20 11:36 EDT    0.92   1.11 -999 -999 -999 -99.9  83.7 -999.9 -9.9 -9.999 -99.9 -99.99 -9.99
2019/08/20 11:42 EDT    0.92   1.09 -999 -999 -999 -99.9  83.7 -999.9 -9.9 -9.999 -99.9 -99.99 -9.99
2019/08/20 11:48 EDT    0.92   1.09 -999 -999 -999 -99.9  83.7 -999.9 -9.9 -9.999 -99.9 -99.99 -9.99
2019/08/20 11:54 EDT    0.92   1.09 -999 -999 -999 -99.9  83.7 -999.9 -9.9 -9.999 -99.9 -99.99 -9.99
2019/08/20 12:00 EDT    0.92   1.08 -999 -999 -999 -99.9  83.7 -999.9 -9.9 -9.999 -99.9 -99.99 -9.99
2019/08/20 12:06 EDT    0.92   1.08 -999 -999 -999 -99.9  83.7 -999.9 -9.9 -9.999 -99.9 -99.99 -9.99
2019/08/20 12:12 EDT    0.93   1.09 -999 -999 -999 -99.9  83.7 -999.9 -9.9 -9.999 -99.9 -99.99 -9.99
2019/08/20 12:18 EDT    0.94   1.11 -999 -999 -999 -99.9  83.7 -999.9 -9.9 -9.999 -99.9 -99.99 -9.99
2019/08/20 12:24 EDT    0.95   1.12 -999 -999 -999 -99.9  83.7 -999.9 -9.9 -9.999 -99.9 -99.99 -9.99
2019/08/20 12:30 EDT    0.96   1.13 -999 -999 -999 -99.9  83.7 -999.9 -9.9 -9.999 -99.9 -99.99 -9.99
2019/08/20 12:36 EDT    0.97   1.16 -999 -999 -999 -99.9  83.5 -999.9 -9.9 -9.999 -99.9 -99.99 -9.99
2019/08/20 12:42 EDT    0.99   1.18 -999 -999 -999 -99.9  83.5 -999.9 -9.9 -9.999 -99.9 -99.99 -9.99
2019/08/20 12:48 EDT    1.01   1.21 -999 -999 -999 -99.9  83.5 -999.9 -9.9 -9.999 -99.9 -99.99 -9.99
2019/08/20 12:54 EDT    1.03   1.25 -999 -999 -999 -99.9  83.5 -999.9 -9.9 -9.999 -99.9 -99.99 -9.99
2019/08/20 13:00 EDT    1.05   1.29 -999 -999 -999 -99.9  83.5 -999.9 -9.9 -9.999 -99.9 -99.99 -9.99
2019/08/20 13:06 EDT    1.07   1.32 -999 -999 -999 -99.9  83.5 -999.9 -9.9 -9.999 -99.9 -99.99 -9.99
2019/08/20 13:12 EDT    1.10   1.36 -999 -999 -999 -99.9  83.5 -999.9 -9.9 -9.999 -99.9 -99.99 -9.99
2019/08/20 13:18 EDT    1.13   1.41 -999 -999 -999 -99.9  83.5 -999.9 -9.9 -9.999 -99.9 -99.99 -9.99
2019/08/20 13:24 EDT    1.16   1.47 -999 -999 -999 -99.9  83.5 -999.9 -9.9 -9.999 -99.9 -99.99 -9.99
2019/08/20 13:30 EDT    1.19   1.52 -999 -999 -999 -99.9  83.5 -999.9 -9.9 -9.999 -99.9 -99.99 -9.99
2019/08/20 13:36 EDT    1.23   1.57 -999 -999 -999 -99.9  83.5 -999.9 -9.9 -9.999 -99.9 -99.99 -9.99
2019/08/20 13:42 EDT    1.26   1.63 -999 -999 -999 -99.9  83.5 -999.9 -9.9 -9.999 -99.9 -99.99 -9.99
2019/08/20 13:48 EDT    1.30   1.69 -999 -999 -999 -99.9  83.5 -999.9 -9.9 -9.999 -99.9 -99.99 -9.99
2019/08/20 13:54 EDT    1.34   1.74 -999 -999 -999 -99.9  83.5 -999.9 -9.9 -9.999 -99.9 -99.99 -9.99
2019/08/20 14:00 EDT    1.38   1.80 -999 -999 -999 -99.9  83.5 -999.9 -9.9 -9.999 -99.9 -99.99 -9.99
2019/08/20 14:06 EDT    1.43   1.85 -999 -999 -999 -99.9  83.5 -999.9 -9.9 -9.999 -99.9 -99.99 -9.99
2019/08/20 14:12 EDT    1.47   1.90 -999 -999 -999 -99.9  83.5 -999.9 -9.9 -9.999 -99.9 -99.99 -9.99
2019/08/20 14:18 EDT    1.52   1.94 -999 -999 -999 -99.9  83.5 -999.9 -9.9 -9.999 -99.9 -99.99 -9.99
2019/08/20 14:24 EDT    1.57   1.99 -999 -999 -999 -99.9  83.5 -999.9 -9.9 -9.999 -99.9 -99.99 -9.99
2019/08/20 14:30 EDT    1.61   2.04 -999 -999 -999 -99.9  83.7 -999.9 -9.9 -9.999 -99.9 -99.99 -9.99
2019/08/20 14:36 EDT    1.66   2.07 -999 -999 -999 -99.9  83.7 -999.9 -9.9 -9.999 -99.9 -99.99 -9.99
2019/08/20 14:42 EDT    1.71   2.11 -999 -999 -999 -99.9  83.7 -999.9 -9.9 -9.999 -99.9 -99.99 -9.99
2019/08/20 14:48 EDT    1.76   2.14 -999 -999 -999 -99.9  83.8 -999.9 -9.9 -9.999 -99.9 -99.99 -9.99
2019/08/20 14:54 EDT    1.81   2.17 -999 -999 -999 -99.9  83.8 -999.9 -9.9 -9.999 -99.9 -99.99 -9.99
2019/08/20 15:00 EDT    1.86   2.21 -999 -999 -999 -99.9  83.8 -999.9 -9.9 -9.999 -99.9 -99.99 -9.99
2019/08/20 15:06 EDT    1.90   2.25 -999 -999 -999 -99.9  84.0 -999.9 -9.9 -9.999 -99.9 -99.99 -9.99
2019/08/20 15:12 EDT    1.95   2.28 -999 -999 -999 -99.9  84.2 -999.9 -9.9 -9.999 -99.9 -99.99 -9.99
2019/08/20 15:18 EDT    1.99   2.31 -999 -999 -999 -99.9  84.2 -999.9 -9.9 -9.999 -99.9 -99.99 -9.99
2019/08/20 15:24 EDT    2.04   2.35 -999 -999 -999 -99.9  84.4 -999.9 -9.9 -9.999 -99.9 -99.99 -9.99
2019/08/20 15:30 EDT    2.08   2.39 -999 -999 -999 -99.9  84.4 -999.9 -9.9 -9.999 -99.9 -99.99 -9.99
2019/08/20 15:36 EDT    2.12   2.43 -999 -999 -999 -99.9  84.6 -999.9 -9.9 -9.999 -99.9 -99.99 -9.99
2019/08/20 15:42 EDT    2.16   2.47 -999 -999 -999 -99.9  84.7 -999.9 -9.9 -9.999 -99.9 -99.99 -9.99
2019/08/20 15:48 EDT    2.20   2.52 -999 -999 -999 -99.9  84.7 -999.9 -9.9 -9.999 -99.9 -99.99 -9.99
2019/08/20 15:54 EDT    2.23   2.58 -999 -999 -999 -99.9  84.7 -999.9 -9.9 -9.999 -99.9 -99.99 -9.99
2019/08/20 16:00 EDT    2.26   2.65 -999 -999 -999 -99.9  84.7 -999.9 -9.9 -9.999 -99.9 -99.99 -9.99
2019/08/20 16:06 EDT    2.29   2.74 -999 -999 -999 -99.9  84.7 -999.9 -9.9 -9.999 -99.9 -99.99 -9.99
2019/08/20 16:12 EDT    2.32   2.84 -999 -999 -999 -99.9  84.7 -999.9 -9.9 -9.999 -99.9 -99.99 -9.99
2019/08/20 16:18 EDT    2.35   2.84 -999 -999 -999 -99.9  84.7 -999.9 -9.9 -9.999 -99.9 -99.99 -9.99
2019/08/20 16:24 EDT    2.37   2.81 -999 -999 -999 -99.9  84.7 -999.9 -9.9 -9.999 -99.9 -99.99 -9.99
2019/08/20 16:30 EDT    2.39   2.85 -999 -999 -999 -99.9  84.7 -999.9 -9.9 -9.999 -99.9 -99.99 -9.99
2019/08/20 16:36 EDT    2.41   2.93 -999 -999 -999 -99.9  84.7 -999.9 -9.9 -9.999 -99.9 -99.99 -9.99
2019/08/20 16:42 EDT    2.43   2.89 -999 -999 -999 -99.9  84.7 -999.9 -9.9 -9.999 -99.9 -99.99 -9.99
2019/08/20 16:48 EDT    2.44   2.84 -999 -999 -999 -99.9  84.7 -999.9 -9.9 -9.999 -99.9 -99.99 -9.99
2019/08/20 16:54 EDT    2.45   2.85 -999 -999 -999 -99.9  84.7 -999.9 -9.9 -9.999 -99.9 -99.99 -9.99
2019/08/20 17:00 EDT    2.46   2.86 -999 -999 -999 -99.9  84.7 -999.9 -9.9 -9.999 -99.9 -99.99 -9.99
2019/08/20 17:06 EDT    2.47   2.90 -999 -999 -999 -99.9  84.7 -999.9 -9.9 -9.999 -99.9 -99.99 -9.99
2019/08/20 17:12 EDT    2.48   2.93 -999 -999 -999 -99.9  84.7 -999.9 -9.9 -9.999 -99.9 -99.99 -9.99
2019/08/20 17:18 EDT    2.48   2.92 -999 -999 -999 -99.9  84.7 -999.9 -9.9 -9.999 -99.9 -99.99 -9.99
2019/08/20 17:24 EDT    2.49   2.93 -999 -999 -999 -99.9  84.7 -999.9 -9.9 -9.999 -99.9 -99.99 -9.99
2019/08/20 17:30 EDT    2.49   3.00 -999 -999 -999 -99.9  84.7 -999.9 -9.9 -9.999 -99.9 -99.99 -9.99
2019/08/20 17:36 EDT    2.49   3.05 -999 -999 -999 -99.9  84.9 -999.9 -9.9 -9.999 -99.9 -99.99 -9.99
2019/08/20 17:42 EDT    2.49   3.03 -999 -999 -999 -99.9  84.9 -999.9 -9.9 -9.999 -99.9 -99.99 -9.99
2019/08/20 17:48 EDT    2.48   3.02 -999 -999 -999 -99.9  84.9 -999.9 -9.9 -9.999 -99.9 -99.99 -9.99
2019/08/20 17:54 EDT    2.48   3.03 -999 -999 -999 -99.9  84.7 -999.9 -9.9 -9.999 -99.9 -99.99 -9.99
2019/08/20 18:00 EDT    2.48   3.05 -999 -999 -999 -99.9  84.7 -999.9 -9.9 -9.999 -99.9 -99.99 -9.99
2019/08/20 18:06 EDT    2.47   3.02 -999 -999 -999 -99.9  84.7 -999.9 -9.9 -9.999 -99.9 -99.99 -9.99
2019/08/20 18:12 EDT    2.46   2.98 -999 -999 -999 -99.9  84.7 -999.9 -9.9 -9.999 -99.9 -99.99 -9.99
2019/08/20 18:18 EDT    2.45   2.98 -999 -999 -999 -99.9  84.7 -999.9 -9.9 -9.999 -99.9 -99.99 -9.99
2019/08/20 18:24 EDT    2.44   2.96 -999 -999 -999 -99.9  84.7 -999.9 -9.9 -9.999 -99.9 -99.99 -9.99
2019/08/20 18:30 EDT    2.43   2.92 -999 -999 -999 -99.9  84.7 -999.9 -9.9 -9.999 -99.9 -99.99 -9.99
2019/08/20 18:36 EDT    2.42   2.89 -999 -999 -999 -99.9  84.7 -999.9 -9.9 -9.999 -99.9 -99.99 -9.99
2019/08/20 18:42 EDT    2.40   2.87 -999 -999 -999 -99.9  84.7 -999.9 -9.9 -9.999 -99.9 -99.99 -9.99
2019/08/20 18:48 EDT    2.39   2.86 -999 -999 -999 -99.9  84.7 -999.9 -9.9 -9.999 -99.9 -99.99 -9.99
2019/08/20 18:54 EDT    2.37   2.85 -999 -999 -999 -99.9  84.7 -999.9 -9.9 -9.999 -99.9 -99.99 -9.99
2019/08/20 19:00 EDT    2.35   2.83 -999 -999 -999 -99.9  84.7 -999.9 -9.9 -9.999 -99.9 -99.99 -9.99
2019/08/20 19:06 EDT    2.33   2.84 -999 -999 -999 -99.9  84.7 -999.9 -9.9 -9.999 -99.9 -99.99 -9.99
2019/08/20 19:12 EDT    2.31   2.84 -999 -999 -999 -99.9  84.7 -999.9 -9.9 -9.999 -99.9 -99.99 -9.99
2019/08/20 19:18 EDT    2.28   2.82 -999 -999 -999 -99.9  84.7 -999.9 -9.9 -9.999 -99.9 -99.99 -9.99
2019/08/20 19:24 EDT    2.26   2.80 -999 -999 -999 -99.9  84.7 -999.9 -9.9 -9.999 -99.9 -99.99 -9.99
2019/08/20 19:30 EDT    2.23   2.80 -999 -999 -999 -99.9  84.7 -999.9 -9.9 -9.999 -99.9 -99.99 -9.99
2019/08/20 19:36 EDT    2.20   2.77 -999 -999 -999 -99.9  84.7 -999.9 -9.9 -9.999 -99.9 -99.99 -9.99
2019/08/20 19:42 EDT    2.17   2.73 -999 -999 -999 -99.9  84.7 -999.9 -9.9 -9.999 -99.9 -99.99 -9.99
2019/08/20 19:48 EDT    2.14   2.71 -999 -999 -999 -99.9  84.4 -999.9 -9.9 -9.999 -99.9 -99.99 -9.99
2019/08/20 19:54 EDT    2.10   2.67 -999 -999 -999 -99.9  84.4 -999.9 -9.9 -9.999 -99.9 -99.99 -9.99
2019/08/20 20:00 EDT    2.07   2.62 -999 -999 -999 -99.9  84.4 -999.9 -9.9 -9.999 -99.9 -99.99 -9.99
2019/08/20 20:06 EDT    2.03   2.57 -999 -999 -999 -99.9  84.4 -999.9 -9.9 -9.999 -99.9 -99.99 -9.99
2019/08/20 20:12 EDT    1.99   2.53 -999 -999 -999 -99.9  84.4 -999.9 -9.9 -9.999 -99.9 -99.99 -9.99
2019/08/20 20:18 EDT    1.95   2.48 -999 -999 -999 -99.9  84.4 -999.9 -9.9 -9.999 -99.9 -99.99 -9.99
2019/08/20 20:24 EDT    1.91   2.43 -999 -999 -999 -99.9  84.4 -999.9 -9.9 -9.999 -99.9 -99.99 -9.99
2019/08/20 20:30 EDT    1.87   2.38 -999 -999 -999 -99.9  84.4 -999.9 -9.9 -9.999 -99.9 -99.99 -9.99
2019/08/20 20:36 EDT    1.83   2.34 -999 -999 -999 -99.9  84.4 -999.9 -9.9 -9.999 -99.9 -99.99 -9.99
2019/08/20 20:42 EDT    1.78   2.29 -999 -999 -999 -99.9  84.4 -999.9 -9.9 -9.999 -99.9 -99.99 -9.99
2019/08/20 20:48 EDT    1.74   2.24 -999 -999 -999 -99.9  84.4 -999.9 -9.9 -9.999 -99.9 -99.99 -9.99
2019/08/20 20:54 EDT    1.69   2.20 -999 -999 -999 -99.9  84.4 -999.9 -9.9 -9.999 -99.9 -99.99 -9.99
2019/08/20 21:00 EDT    1.65   2.17 -999 -999 -999 -99.9  84.4 -999.9 -9.9 -9.999 -99.9 -99.99 -9.99
2019/08/20 21:06 EDT    1.60   2.13 -999 -999 -999 -99.9  84.4 -999.9 -9.9 -9.999 -99.9 -99.99 -9.99
2019/08/20 21:12 EDT    1.56   2.08 -999 -999 -999 -99.9  84.4 -999.9 -9.9 -9.999 -99.9 -99.99 -9.99
2019/08/20 21:18 EDT    1.51   2.04 -999 -999 -999 -99.9  84.4 -999.9 -9.9 -9.999 -99.9 -99.99 -9.99
2019/08/20 21:24 EDT    1.47   2.00 -999 -999 -999 -99.9  84.4 -999.9 -9.9 -9.999 -99.9 -99.99 -9.99
2019/08/20 21:30 EDT    1.42   1.96 -999 -999 -999 -99.9  84.4 -999.9 -9.9 -9.999 -99.9 -99.99 -9.99
2019/08/20 21:36 EDT    1.38   1.93 -999 -999 -999 -99.9  84.4 -999.9 -9.9 -9.999 -99.9 -99.99 -9.99
2019/08/20 21:42 EDT    1.34   1.89 -999 -999 -999 -99.9  84.4 -999.9 -9.9 -9.999 -99.9 -99.99 -9.99
2019/08/20 21:48 EDT    1.30   1.85 -999 -999 -999 -99.9  84.2 -999.9 -9.9 -9.999 -99.9 -99.99 -9.99
2019/08/20 21:54 EDT    1.26   1.81 -999 -999 -999 -99.9  84.2 -999.9 -9.9 -9.999 -99.9 -99.99 -9.99
2019/08/20 22:00 EDT    1.22   1.77 -999 -999 -999 -99.9  84.2 -999.9 -9.9 -9.999 -99.9 -99.99 -9.99
2019/08/20 22:06 EDT    1.19   1.72 -999 -999 -999 -99.9  84.2 -999.9 -9.9 -9.999 -99.9 -99.99 -9.99
2019/08/20 22:12 EDT    1.15   1.69 -999 -999 -999 -99.9  84.2 -999.9 -9.9 -9.999 -99.9 -99.99 -9.99
2019/08/20 22:18 EDT    1.12   1.67 -999 -999 -999 -99.9  84.0 -999.9 -9.9 -9.999 -99.9 -99.99 -9.99
2019/08/20 22:24 EDT    1.09   1.62 -999 -999 -999 -99.9  83.8 -999.9 -9.9 -9.999 -99.9 -99.99 -9.99
2019/08/20 22:30 EDT    1.06   1.59 -999 -999 -999 -99.9  83.8 -999.9 -9.9 -9.999 -99.9 -99.99 -9.99
2019/08/20 22:36 EDT    1.04   1.56 -999 -999 -999 -99.9  83.7 -999.9 -9.9 -9.999 -99.9 -99.99 -9.99
2019/08/20 22:42 EDT    1.01   1.52 -999 -999 -999 -99.9  83.7 -999.9 -9.9 -9.999 -99.9 -99.99 -9.99
2019/08/20 22:48 EDT    0.99   1.49 -999 -999 -999 -99.9  83.7 -999.9 -9.9 -9.999 -99.9 -99.99 -9.99
2019/08/20 22:54 EDT    0.97   1.45 -999 -999 -999 -99.9  83.7 -999.9 -9.9 -9.999 -99.9 -99.99 -9.99
2019/08/20 23:00 EDT    0.95   1.41 -999 -999 -999 -99.9  83.7 -999.9 -9.9 -9.999 -99.9 -99.99 -9.99
2019/08/20 23:06 EDT    0.94   1.39 -999 -999 -999 -99.9  83.7 -999.9 -9.9 -9.999 -99.9 -99.99 -9.99
2019/08/20 23:12 EDT    0.92   1.36 -999 -999 -999 -99.9  83.7 -999.9 -9.9 -9.999 -99.9 -99.99 -9.99
2019/08/20 23:18 EDT    0.91   1.32 -999 -999 -999 -99.9  83.7 -999.9 -9.9 -9.999 -99.9 -99.99 -9.99
2019/08/20 23:24 EDT    0.90   1.29 -999 -999 -999 -99.9  83.7 -999.9 -9.9 -9.999 -99.9 -99.99 -9.99
2019/08/20 23:30 EDT    0.89   1.28 -999 -999 -999 -99.9  83.7 -999.9 -9.9 -9.999 -99.9 -99.99 -9.99
2019/08/20 23:36 EDT    0.89   1.25 -999 -999 -999 -99.9  83.7 -999.9 -9.9 -9.999 -99.9 -99.99 -9.99
2019/08/20 23:42 EDT    0.88   1.23 -999 -999 -999 -99.9  83.7 -999.9 -9.9 -9.999 -99.9 -99.99 -9.99
2019/08/20 23:48 EDT    0.88   1.20 -999 -999 -999 -99.9  83.7 -999.9 -9.9 -9.999 -99.9 -99.99 -9.99
2019/08/20 23:54 EDT    0.88   1.18 -999 -999 -999 -99.9  83.7 -999.9 -9.9 -9.999 -99.9 -99.99 -9.99
2019/08/21 00:00 EDT    0.88   1.18 -999 -999 -999 -99.9  83.7 -999.9 -9.9 -9.999 -99.9 -99.99 -9.99
2019/08/21 00:06 EDT    0.88   1.17 -999 -999 -999 -99.9  83.7 -999.9 -9.9 -9.999 -99.9 -99.99 -9.99
2019/08/21 00:12 EDT    0.89   1.17 -999 -999 -999 -99.9  83.7 -999.9 -9.9 -9.999 -99.9 -99.99 -9.99
2019/08/21 00:18 EDT    0.89   1.15 -999 -999 -999 -99.9  83.5 -999.9 -9.9 -9.999 -99.9 -99.99 -9.99
2019/08/21 00:24 EDT    0.90   1.17 -999 -999 -999 -99.9  83.5 -999.9 -9.9 -9.999 -99.9 -99.99 -9.99
2019/08/21 00:30 EDT    0.91   1.17 -999 -999 -999 -99.9  83.5 -999.9 -9.9 -9.999 -99.9 -99.99 -9.99
2019/08/21 00:36 EDT    0.92   1.17 -999 -999 -999 -99.9  83.5 -999.9 -9.9 -9.999 -99.9 -99.99 -9.99
2019/08/21 00:42 EDT    0.93   1.19 -999 -999 -999 -99.9  83.5 -999.9 -9.9 -9.999 -99.9 -99.99 -9.99
2019/08/21 00:48 EDT    0.95   1.18 -999 -999 -999 -99.9  83.5 -999.9 -9.9 -9.999 -99.9 -99.99 -9.99
2019/08/21 00:54 EDT    0.97   1.20 -999 -999 -999 -99.9  83.5 -999.9 -9.9 -9.999 -99.9 -99.99 -9.99
2019/08/21 01:00 EDT    0.98   1.23 -999 -999 -999 -99.9  83.5 -999.9 -9.9 -9.999 -99.9 -99.99 -9.99
2019/08/21 01:06 EDT    1.01   1.24 -999 -999 -999 -99.9  83.5 -999.9 -9.9 -9.999 -99.9 -99.99 -9.99
2019/08/21 01:12 EDT    1.03   1.27 -999 -999 -999 -99.9  83.5 -999.9 -9.9 -9.999 -99.9 -99.99 -9.99
2019/08/21 01:18 EDT    1.05   1.30 -999 -999 -999 -99.9  83.5 -999.9 -9.9 -9.999 -99.9 -99.99 -9.99
2019/08/21 01:24 EDT    1.08   1.34 -999 -999 -999 -99.9  83.5 -999.9 -9.9 -9.999 -99.9 -99.99 -9.99
2019/08/21 01:30 EDT    1.11   1.37 -999 -999 -999 -99.9  83.5 -999.9 -9.9 -9.999 -99.9 -99.99 -9.99
2019/08/21 01:36 EDT    1.14   1.41 -999 -999 -999 -99.9  83.5 -999.9 -9.9 -9.999 -99.9 -99.99 -9.99
2019/08/21 01:42 EDT    1.18   1.45 -999 -999 -999 -99.9  83.5 -999.9 -9.9 -9.999 -99.9 -99.99 -9.99
2019/08/21 01:48 EDT    1.21   1.50 -999 -999 -999 -99.9  83.5 -999.9 -9.9 -9.999 -99.9 -99.99 -9.99
2019/08/21 01:54 EDT    1.25   1.56 -999 -999 -999 -99.9  83.5 -999.9 -9.9 -9.999 -99.9 -99.99 -9.99
2019/08/21 02:00 EDT    1.29   1.61 -999 -999 -999 -99.9  83.5 -999.9 -9.9 -9.999 -99.9 -99.99 -9.99
2019/08/21 02:06 EDT    1.33   1.67 -999 -999 -999 -99.9  83.5 -999.9 -9.9 -9.999 -99.9 -99.99 -9.99
2019/08/21 02:12 EDT    1.37   1.74 -999 -999 -999 -99.9  83.5 -999.9 -9.9 -9.999 -99.9 -99.99 -9.99
2019/08/21 02:18 EDT    1.42   1.80 -999 -999 -999 -99.9  83.5 -999.9 -9.9 -9.999 -99.9 -99.99 -9.99
2019/08/21 02:24 EDT    1.46   1.85 -999 -999 -999 -99.9  83.5 -999.9 -9.9 -9.999 -99.9 -99.99 -9.99
2019/08/21 02:30 EDT    1.51   1.92 -999 -999 -999 -99.9  83.5 -999.9 -9.9 -9.999 -99.9 -99.99 -9.99
2019/08/21 02:36 EDT    1.56   1.98 -999 -999 -999 -99.9  83.7 -999.9 -9.9 -9.999 -99.9 -99.99 -9.99
2019/08/21 02:42 EDT    1.61   2.03 -999 -999 -999 -99.9  83.7 -999.9 -9.9 -9.999 -99.9 -99.99 -9.99
2019/08/21 02:48 EDT    1.66   2.09 -999 -999 -999 -99.9  83.7 -999.9 -9.9 -9.999 -99.9 -99.99 -9.99
2019/08/21 02:54 EDT    1.71   2.14 -999 -999 -999 -99.9  83.8 -999.9 -9.9 -9.999 -99.9 -99.99 -9.99
2019/08/21 03:00 EDT    1.76   2.19 -999 -999 -999 -99.9  83.8 -999.9 -9.9 -9.999 -99.9 -99.99 -9.99
2019/08/21 03:06 EDT    1.81   2.24 -999 -999 -999 -99.9  83.8 -999.9 -9.9 -9.999 -99.9 -99.99 -9.99
2019/08/21 03:12 EDT    1.86   2.28 -999 -999 -999 -99.9  83.8 -999.9 -9.9 -9.999 -99.9 -99.99 -9.99
2019/08/21 03:18 EDT    1.91   2.32 -999 -999 -999 -99.9  84.0 -999.9 -9.9 -9.999 -99.9 -99.99 -9.99
2019/08/21 03:24 EDT    1.96   2.36 -999 -999 -999 -99.9  84.0 -999.9 -9.9 -9.999 -99.9 -99.99 -9.99
2019/08/21 03:30 EDT    2.01   2.39 -999 -999 -999 -99.9  84.0 -999.9 -9.9 -9.999 -99.9 -99.99 -9.99
2019/08/21 03:36 EDT    2.06   2.42 -999 -999 -999 -99.9  84.0 -999.9 -9.9 -9.999 -99.9 -99.99 -9.99
2019/08/21 03:42 EDT    2.10   2.44 -999 -999 -999 -99.9  84.2 -999.9 -9.9 -9.999 -99.9 -99.99 -9.99
2019/08/21 03:48 EDT    2.15   2.47 -999 -999 -999 -99.9  84.2 -999.9 -9.9 -9.999 -99.9 -99.99 -9.99
2019/08/21 03:54 EDT    2.19   2.49 -999 -999 -999 -99.9  84.2 -999.9 -9.9 -9.999 -99.9 -99.99 -9.99
2019/08/21 04:00 EDT    2.23   2.51 -999 -999 -999 -99.9  84.2 -999.9 -9.9 -9.999 -99.9 -99.99 -9.99
2019/08/21 04:06 EDT    2.27   2.54 -999 -999 -999 -99.9  84.2 -999.9 -9.9 -9.999 -99.9 -99.99 -9.99
2019/08/21 04:12 EDT    2.30   2.56 -999 -999 -999 -99.9  84.4 -999.9 -9.9 -9.999 -99.9 -99.99 -9.99
2019/08/21 04:18 EDT    2.34   2.58 -999 -999 -999 -99.9  84.4 -999.9 -9.9 -9.999 -99.9 -99.99 -9.99
2019/08/21 04:24 EDT    2.37   2.59 -999 -999 -999 -99.9  84.4 -999.9 -9.9 -9.999 -99.9 -99.99 -9.99
2019/08/21 04:30 EDT    2.40   2.61 -999 -999 -999 -99.9  84.4 -999.9 -9.9 -9.999 -99.9 -99.99 -9.99
2019/08/21 04:36 EDT    2.42   2.63 -999 -999 -999 -99.9  84.4 -999.9 -9.9 -9.999 -99.9 -99.99 -9.99
2019/08/21 04:42 EDT    2.44   2.64 -999 -999 -999 -99.9  84.4 -999.9 -9.9 -9.999 -99.9 -99.99 -9.99
2019/08/21 04:48 EDT    2.47   2.66 -999 -999 -999 -99.9  84.4 -999.9 -9.9 -9.999 -99.9 -99.99 -9.99
2019/08/21 04:54 EDT    2.48   2.68 -999 -999 -999 -99.9  84.4 -999.9 -9.9 -9.999 -99.9 -99.99 -9.99
2019/08/21 05:00 EDT    2.50   2.70 -999 -999 -999 -99.9  84.4 -999.9 -9.9 -9.999 -99.9 -99.99 -9.99
2019/08/21 05:06 EDT    2.51   2.72 -999 -999 -999 -99.9  84.4 -999.9 -9.9 -9.999 -99.9 -99.99 -9.99
2019/08/21 05:12 EDT    2.52   2.75 -999 -999 -999 -99.9  84.6 -999.9 -9.9 -9.999 -99.9 -99.99 -9.99
2019/08/21 05:18 EDT    2.53   2.77 -999 -999 -999 -99.9  84.6 -999.9 -9.9 -9.999 -99.9 -99.99 -9.99
2019/08/21 05:24 EDT    2.54   2.80 -999 -999 -999 -99.9  84.6 -999.9 -9.9 -9.999 -99.9 -99.99 -9.99
2019/08/21 05:30 EDT    2.54   2.84 -999 -999 -999 -99.9  84.6 -999.9 -9.9 -9.999 -99.9 -99.99 -9.99
2019/08/21 05:36 EDT    2.55   2.86 -999 -999 -999 -99.9  84.6 -999.9 -9.9 -9.999 -99.9 -99.99 -9.99
2019/08/21 05:42 EDT    2.55   2.89 -999 -999 -999 -99.9  84.6 -999.9 -9.9 -9.999 -99.9 -99.99 -9.99
2019/08/21 05:48 EDT    2.55   2.93 -999 -999 -999 -99.9  84.6 -999.9 -9.9 -9.999 -99.9 -99.99 -9.99
2019/08/21 05:54 EDT    2.55   2.96 -999 -999 -999 -99.9  84.6 -999.9 -9.9 -9.999 -99.9 -99.99 -9.99
2019/08/21 06:00 EDT    2.54   2.99 -999 -999 -999 -99.9  84.6 -999.9 -9.9 -9.999 -99.9 -99.99 -9.99
2019/08/21 06:06 EDT    2.54   3.03 -999 -999 -999 -99.9  84.6 -999.9 -9.9 -9.999 -99.9 -99.99 -9.99
2019/08/21 06:12 EDT    2.53   3.06 -999 -999 -999 -99.9  84.6 -999.9 -9.9 -9.999 -99.9 -99.99 -9.99
2019/08/21 06:18 EDT    2.52   3.08 -999 -999 -999 -99.9  84.7 -999.9 -9.9 -9.999 -99.9 -99.99 -9.99
2019/08/21 06:24 EDT    2.51   3.10 -999 -999 -999 -99.9  84.7 -999.9 -9.9 -9.999 -99.9 -99.99 -9.99
2019/08/21 06:30 EDT    2.50   3.12 -999 -999 -999 -99.9  84.7 -999.9 -9.9 -9.999 -99.9 -99.99 -9.99
2019/08/21 06:36 EDT    2.49   3.14 -999 -999 -999 -99.9  84.7 -999.9 -9.9 -9.999 -99.9 -99.99 -9.99
2019/08/21 06:42 EDT    2.48   3.15 -999 -999 -999 -99.9  84.7 -999.9 -9.9 -9.999 -99.9 -99.99 -9.99
2019/08/21 06:48 EDT    2.47   3.16 -999 -999 -999 -99.9  84.7 -999.9 -9.9 -9.999 -99.9 -99.99 -9.99
2019/08/21 06:54 EDT    2.45   3.16 -999 -999 -999 -99.9  84.7 -999.9 -9.9 -9.999 -99.9 -99.99 -9.99
2019/08/21 07:00 EDT    2.44   3.16 -999 -999 -999 -99.9  84.7 -999.9 -9.9 -9.999 -99.9 -99.99 -9.99
2019/08/21 07:06 EDT    2.42   3.15 -999 -999 -999 -99.9  84.7 -999.9 -9.9 -9.999 -99.9 -99.99 -9.99
2019/08/21 07:12 EDT    2.40   3.13 -999 -999 -999 -99.9  84.7 -999.9 -9.9 -9.999 -99.9 -99.99 -9.99
2019/08/21 07:18 EDT    2.38   3.12 -999 -999 -999 -99.9  84.7 -999.9 -9.9 -9.999 -99.9 -99.99 -9.99
2019/08/21 07:24 EDT    2.36   3.09 -999 -999 -999 -99.9  84.7 -999.9 -9.9 -9.999 -99.9 -99.99 -9.99
2019/08/21 07:30 EDT    2.34   3.05 -999 -999 -999 -99.9  84.7 -999.9 -9.9 -9.999 -99.9 -99.99 -9.99
2019/08/21 07:36 EDT    2.32   3.02 -999 -999 -999 -99.9  84.7 -999.9 -9.9 -9.999 -99.9 -99.99 -9.99
2019/08/21 07:42 EDT    2.29   2.98 -999 -999 -999 -99.9  84.7 -999.9 -9.9 -9.999 -99.9 -99.99 -9.99
2019/08/21 07:48 EDT    2.27   2.94 -999 -999 -999 -99.9  84.9 -999.9 -9.9 -9.999 -99.9 -99.99 -9.99
2019/08/21 07:54 EDT    2.24   2.89 -999 -999 -999 -99.9  84.9 -999.9 -9.9 -9.999 -99.9 -99.99 -9.99
2019/08/21 08:00 EDT    2.21   2.85 -999 -999 -999 -99.9  84.9 -999.9 -9.9 -9.999 -99.9 -99.99 -9.99
2019/08/21 08:06 EDT    2.18   2.81 -999 -999 -999 -99.9  84.9 -999.9 -9.9 -9.999 -99.9 -99.99 -9.99
2019/08/21 08:12 EDT    2.15   2.77 -999 -999 -999 -99.9  84.7 -999.9 -9.9 -9.999 -99.9 -99.99 -9.99
2019/08/21 08:18 EDT    2.11   2.73 -999 -999 -999 -99.9  84.7 -999.9 -9.9 -9.999 -99.9 -99.99 -9.99
2019/08/21 08:24 EDT    2.08   2.68 -999 -999 -999 -99.9  84.7 -999.9 -9.9 -9.999 -99.9 -99.99 -9.99
2019/08/21 08:30 EDT    2.04   2.64 -999 -999 -999 -99.9  84.7 -999.9 -9.9 -9.999 -99.9 -99.99 -9.99
2019/08/21 08:36 EDT    2.00   2.59 -999 -999 -999 -99.9  84.7 -999.9 -9.9 -9.999 -99.9 -99.99 -9.99
2019/08/21 08:42 EDT    1.97   2.54 -999 -999 -999 -99.9  84.7 -999.9 -9.9 -9.999 -99.9 -99.99 -9.99
2019/08/21 08:48 EDT    1.93   2.50 -999 -999 -999 -99.9  84.7 -999.9 -9.9 -9.999 -99.9 -99.99 -9.99
2019/08/21 08:54 EDT    1.89   2.45 -999 -999 -999 -99.9  84.7 -999.9 -9.9 -9.999 -99.9 -99.99 -9.99
2019/08/21 09:00 EDT    1.84   2.40 -999 -999 -999 -99.9  84.7 -999.9 -9.9 -9.999 -99.9 -99.99 -9.99
2019/08/21 09:06 EDT    1.80   2.36 -999 -999 -999 -99.9  84.7 -999.9 -9.9 -9.999 -99.9 -99.99 -9.99
2019/08/21 09:12 EDT    1.76   2.31 -999 -999 -999 -99.9  84.7 -999.9 -9.9 -9.999 -99.9 -99.99 -9.99
2019/08/21 09:18 EDT    1.72   2.26 -999 -999 -999 -99.9  84.7 -999.9 -9.9 -9.999 -99.9 -99.99 -9.99
2019/08/21 09:24 EDT    1.67   2.18 -999 -999 -999 -99.9  84.7 -999.9 -9.9 -9.999 -99.9 -99.99 -9.99
2019/08/21 09:30 EDT    1.63   2.14 -999 -999 -999 -99.9  84.7 -999.9 -9.9 -9.999 -99.9 -99.99 -9.99
2019/08/21 09:36 EDT    1.59   2.09 -999 -999 -999 -99.9  84.7 -999.9 -9.9 -9.999 -99.9 -99.99 -9.99
2019/08/21 09:42 EDT    1.55   2.06 -999 -999 -999 -99.9  84.6 -999.9 -9.9 -9.999 -99.9 -99.99 -9.99
2019/08/21 09:48 EDT    1.50   2.01 -999 -999 -999 -99.9  84.4 -999.9 -9.9 -9.999 -99.9 -99.99 -9.99
2019/08/21 09:54 EDT    1.46   1.96 -999 -999 -999 -99.9  84.6 -999.9 -9.9 -9.999 -99.9 -99.99 -9.99
2019/08/21 10:00 EDT    1.42   1.91 -999 -999 -999 -99.9  84.6 -999.9 -9.9 -9.999 -99.9 -99.99 -9.99
2019/08/21 10:06 EDT    1.38   1.85 -999 -999 -999 -99.9  84.6 -999.9 -9.9 -9.999 -99.9 -99.99 -9.99
2019/08/21 10:12 EDT    1.34   1.83 -999 -999 -999 -99.9  84.6 -999.9 -9.9 -9.999 -99.9 -99.99 -9.99
2019/08/21 10:18 EDT    1.31   1.78 -999 -999 -999 -99.9  84.6 -999.9 -9.9 -9.999 -99.9 -99.99 -9.99
2019/08/21 10:24 EDT    1.27   1.73 -999 -999 -999 -99.9  84.4 -999.9 -9.9 -9.999 -99.9 -99.99 -9.99
2019/08/21 10:30 EDT    1.24   1.68 -999 -999 -999 -99.9  84.4 -999.9 -9.9 -9.999 -99.9 -99.99 -9.99
2019/08/21 10:36 EDT    1.21   1.64 -999 -999 -999 -99.9  84.4 -999.9 -9.9 -9.999 -99.9 -99.99 -9.99
2019/08/21 10:42 EDT    1.18   1.62 -999 -999 -999 -99.9  84.4 -999.9 -9.9 -9.999 -99.9 -99.99 -9.99
2019/08/21 10:48 EDT    1.15   1.58 -999 -999 -999 -99.9  84.2 -999.9 -9.9 -9.999 -99.9 -99.99 -9.99
2019/08/21 10:54 EDT    1.12   1.54 -999 -999 -999 -99.9  84.2 -999.9 -9.9 -9.999 -99.9 -99.99 -9.99
2019/08/21 11:00 EDT    1.09   1.51 -999 -999 -999 -99.9  84.2 -999.9 -9.9 -9.999 -99.9 -99.99 -9.99
2019/08/21 11:06 EDT    1.07   1.46 -999 -999 -999 -99.9  84.0 -999.9 -9.9 -9.999 -99.9 -99.99 -9.99
2019/08/21 11:12 EDT    1.05   1.42 -999 -999 -999 -99.9  84.0 -999.9 -9.9 -9.999 -99.9 -99.99 -9.99
2019/08/21 11:18 EDT    1.03   1.40 -999 -999 -999 -99.9  84.0 -999.9 -9.9 -9.999 -99.9 -99.99 -9.99
2019/08/21 11:24 EDT    1.01   1.37 -999 -999 -999 -99.9  84.0 -999.9 -9.9 -9.999 -99.9 -99.99 -9.99
2019/08/21 11:30 EDT    0.99   1.32 -999 -999 -999 -99.9  84.0 -999.9 -9.9 -9.999 -99.9 -99.99 -9.99
2019/08/21 11:36 EDT    0.97   1.30 -999 -999 -999 -99.9  84.0 -999.9 -9.9 -9.999 -99.9 -99.99 -9.99
2019/08/21 11:42 EDT    0.96   1.29 -999 -999 -999 -99.9  84.0 -999.9 -9.9 -9.999 -99.9 -99.99 -9.99
2019/08/21 11:48 EDT    0.95   1.27 -999 -999 -999 -99.9  84.2 -999.9 -9.9 -9.999 -99.9 -99.99 -9.99
2019/08/21 11:54 EDT    0.94   1.23 -999 -999 -999 -99.9  84.2 -999.9 -9.9 -9.999 -99.9 -99.99 -9.99
2019/08/21 12:00 EDT    0.93   1.22 -999 -999 -999 -99.9  84.2 -999.9 -9.9 -9.999 -99.9 -99.99 -9.99
2019/08/21 12:06 EDT    0.92   1.19 -999 -999 -999 -99.9  84.2 -999.9 -9.9 -9.999 -99.9 -99.99 -9.99
2019/08/21 12:12 EDT    0.91   1.17 -999 -999 -999 -99.9  84.2 -999.9 -9.9 -9.999 -99.9 -99.99 -9.99
2019/08/21 12:18 EDT    0.91   1.15 -999 -999 -999 -99.9  84.2 -999.9 -9.9 -9.999 -99.9 -99.99 -9.99
2019/08/21 12:24 EDT    0.90   1.13 -999 -999 -999 -99.9  84.0 -999.9 -9.9 -9.999 -99.9 -99.99 -9.99
2019/08/21 12:30 EDT    0.90   1.12 -999 -999 -999 -99.9  84.0 -999.9 -9.9 -9.999 -99.9 -99.99 -9.99
2019/08/21 12:36 EDT    0.90   1.10 -999 -999 -999 -99.9  84.0 -999.9 -9.9 -9.999 -99.9 -99.99 -9.99
2019/08/21 12:42 EDT    0.90   1.09 -999 -999 -999 -99.9  83.8 -999.9 -9.9 -9.999 -99.9 -99.99 -9.99
2019/08/21 12:48 EDT    0.90   1.09 -999 -999 -999 -99.9  83.8 -999.9 -9.9 -9.999 -99.9 -99.99 -9.99
2019/08/21 12:54 EDT    0.90   1.09 -999 -999 -999 -99.9  83.3 -999.9 -9.9 -9.999 -99.9 -99.99 -9.99
2019/08/21 13:00 EDT    0.90   1.08 -999 -999 -999 -99.9  83.3 -999.9 -9.9 -9.999 -99.9 -99.99 -9.99
2019/08/21 13:06 EDT    0.91   1.08 -999 -999 -999 -99.9  83.5 -999.9 -9.9 -9.999 -99.9 -99.99 -9.99
2019/08/21 13:12 EDT    0.91   1.10 -999 -999 -999 -99.9  83.5 -999.9 -9.9 -9.999 -99.9 -99.99 -9.99
2019/08/21 13:18 EDT    0.92   1.11 -999 -999 -999 -99.9  83.5 -999.9 -9.9 -9.999 -99.9 -99.99 -9.99
2019/08/21 13:24 EDT    0.93   1.12 -999 -999 -999 -99.9  83.5 -999.9 -9.9 -9.999 -99.9 -99.99 -9.99
2019/08/21 13:30 EDT    0.94   1.15 -999 -999 -999 -99.9  83.5 -999.9 -9.9 -9.999 -99.9 -99.99 -9.99
2019/08/21 13:36 EDT    0.96   1.18 -999 -999 -999 -99.9  83.5 -999.9 -9.9 -9.999 -99.9 -99.99 -9.99
2019/08/21 13:42 EDT    0.97   1.22 -999 -999 -999 -99.9  83.5 -999.9 -9.9 -9.999 -99.9 -99.99 -9.99
2019/08/21 13:48 EDT    0.99   1.25 -999 -999 -999 -99.9  83.5 -999.9 -9.9 -9.999 -99.9 -99.99 -9.99
2019/08/21 13:54 EDT    1.01   1.29 -999 -999 -999 -99.9  83.5 -999.9 -9.9 -9.999 -99.9 -99.99 -9.99
2019/08/21 14:00 EDT    1.03   1.33 -999 -999 -999 -99.9  83.5 -999.9 -9.9 -9.999 -99.9 -99.99 -9.99
2019/08/21 14:06 EDT    1.05   1.34 -999 -999 -999 -99.9  83.5 -999.9 -9.9 -9.999 -99.9 -99.99 -9.99
2019/08/21 14:12 EDT    1.08   1.40 -999 -999 -999 -99.9  83.3 -999.9 -9.9 -9.999 -99.9 -99.99 -9.99
2019/08/21 14:18 EDT    1.11   1.46 -999 -999 -999 -99.9  83.3 -999.9 -9.9 -9.999 -99.9 -99.99 -9.99
2019/08/21 14:24 EDT    1.13   1.49 -999 -999 -999 -99.9  83.5 -999.9 -9.9 -9.999 -99.9 -99.99 -9.99
2019/08/21 14:30 EDT    1.16   1.53 -999 -999 -999 -99.9  83.5 -999.9 -9.9 -9.999 -99.9 -99.99 -9.99
2019/08/21 14:36 EDT    1.20   1.58 -999 -999 -999 -99.9  83.5 -999.9 -9.9 -9.999 -99.9 -99.99 -9.99
2019/08/21 14:42 EDT    1.23   1.63 -999 -999 -999 -99.9  83.5 -999.9 -9.9 -9.999 -99.9 -99.99 -9.99
2019/08/21 14:48 EDT    1.27   1.68 -999 -999 -999 -99.9  83.5 -999.9 -9.9 -9.999 -99.9 -99.99 -9.99
2019/08/21 14:54 EDT    1.30   1.74 -999 -999 -999 -99.9  83.5 -999.9 -9.9 -9.999 -99.9 -99.99 -9.99
2019/08/21 15:00 EDT    1.34   1.80 -999 -999 -999 -99.9  83.7 -999.9 -9.9 -9.999 -99.9 -99.99 -9.99
2019/08/21 15:06 EDT    1.38   1.83 -999 -999 -999 -99.9  83.8 -999.9 -9.9 -9.999 -99.9 -99.99 -9.99
2019/08/21 15:12 EDT    1.42   1.87 -999 -999 -999 -99.9  83.8 -999.9 -9.9 -9.999 -99.9 -99.99 -9.99
2019/08/21 15:18 EDT    1.46   1.92 -999 -999 -999 -99.9  83.8 -999.9 -9.9 -9.999 -99.9 -99.99 -9.99
2019/08/21 15:24 EDT    1.51   1.97 -999 -999 -999 -99.9  83.8 -999.9 -9.9 -9.999 -99.9 -99.99 -9.99
2019/08/21 15:30 EDT    1.55   2.02 -999 -999 -999 -99.9  84.0 -999.9 -9.9 -9.999 -99.9 -99.99 -9.99
2019/08/21 15:36 EDT    1.59   2.04 -999 -999 -999 -99.9  84.0 -999.9 -9.9 -9.999 -99.9 -99.99 -9.99
2019/08/21 15:42 EDT    1.63   2.08 -999 -999 -999 -99.9  84.0 -999.9 -9.9 -9.999 -99.9 -99.99 -9.99
2019/08/21 15:48 EDT    1.68   2.11 -999 -999 -999 -99.9  84.0 -999.9 -9.9 -9.999 -99.9 -99.99 -9.99
2019/08/21 15:54 EDT    1.72   2.14 -999 -999 -999 -99.9  84.0 -999.9 -9.9 -9.999 -99.9 -99.99 -9.99
2019/08/21 16:00 EDT    1.76   2.16 -999 -999 -999 -99.9  84.0 -999.9 -9.9 -9.999 -99.9 -99.99 -9.99
2019/08/21 16:06 EDT    1.80   2.19 -999 -999 -999 -99.9  84.0 -999.9 -9.9 -9.999 -99.9 -99.99 -9.99
2019/08/21 16:12 EDT    1.84   2.21 -999 -999 -999 -99.9  84.2 -999.9 -9.9 -9.999 -99.9 -99.99 -9.99
2019/08/21 16:18 EDT    1.87   2.22 -999 -999 -999 -99.9  84.2 -999.9 -9.9 -9.999 -99.9 -99.99 -9.99
2019/08/21 16:24 EDT    1.91   2.25 -999 -999 -999 -99.9  84.2 -999.9 -9.9 -9.999 -99.9 -99.99 -9.99
2019/08/21 16:30 EDT    1.94   2.27 -999 -999 -999 -99.9  84.2 -999.9 -9.9 -9.999 -99.9 -99.99 -9.99
2019/08/21 16:36 EDT    1.98   2.30 -999 -999 -999 -99.9  84.2 -999.9 -9.9 -9.999 -99.9 -99.99 -9.99
2019/08/21 16:42 EDT    2.01   2.33 -999 -999 -999 -99.9  84.2 -999.9 -9.9 -9.999 -99.9 -99.99 -9.99
2019/08/21 16:48 EDT    2.03   2.35 -999 -999 -999 -99.9  84.2 -999.9 -9.9 -9.999 -99.9 -99.99 -9.99
2019/08/21 16:54 EDT    2.06   2.38 -999 -999 -999 -99.9  84.4 -999.9 -9.9 -9.999 -99.9 -99.99 -9.99
2019/08/21 17:00 EDT    2.09   2.44 -999 -999 -999 -99.9  84.4 -999.9 -9.9 -9.999 -99.9 -99.99 -9.99
2019/08/21 17:06 EDT    2.11   2.49 -999 -999 -999 -99.9  84.4 -999.9 -9.9 -9.999 -99.9 -99.99 -9.99
2019/08/21 17:12 EDT    2.13   2.52 -999 -999 -999 -99.9  84.4 -999.9 -9.9 -9.999 -99.9 -99.99 -9.99
2019/08/21 17:18 EDT    2.15   2.54 -999 -999 -999 -99.9  84.4 -999.9 -9.9 -9.999 -99.9 -99.99 -9.99
2019/08/21 17:24 EDT    2.17   2.57 -999 -999 -999 -99.9  84.4 -999.9 -9.9 -9.999 -99.9 -99.99 -9.99
2019/08/21 17:30 EDT    2.18   2.64 -999 -999 -999 -99.9  84.4 -999.9 -9.9 -9.999 -99.9 -99.99 -9.99
2019/08/21 17:36 EDT    2.19   2.68 -999 -999 -999 -99.9  84.6 -999.9 -9.9 -9.999 -99.9 -99.99 -9.99
2019/08/21 17:42 EDT    2.20   2.72 -999 -999 -999 -99.9  84.7 -999.9 -9.9 -9.999 -99.9 -99.99 -9.99
2019/08/21 17:48 EDT    2.21   2.76 -999 -999 -999 -99.9  84.9 -999.9 -9.9 -9.999 -99.9 -99.99 -9.99
2019/08/21 17:54 EDT    2.22   2.81 -999 -999 -999 -99.9  84.9 -999.9 -9.9 -9.999 -99.9 -99.99 -9.99
2019/08/21 18:00 EDT    2.23   2.89 -999 -999 -999 -99.9  84.7 -999.9 -9.9 -9.999 -99.9 -99.99 -9.99
2019/08/21 18:06 EDT    2.23   2.92 -999 -999 -999 -99.9  84.6 -999.9 -9.9 -9.999 -99.9 -99.99 -9.99
2019/08/21 18:12 EDT    2.24   2.94 -999 -999 -999 -99.9  84.6 -999.9 -9.9 -9.999 -99.9 -99.99 -9.99
2019/08/21 18:18 EDT    2.24   3.01 -999 -999 -999 -99.9  84.6 -999.9 -9.9 -9.999 -99.9 -99.99 -9.99
2019/08/21 18:24 EDT    2.24   3.05 -999 -999 -999 -99.9  84.6 -999.9 -9.9 -9.999 -99.9 -99.99 -9.99
2019/08/21 18:30 EDT    2.24   3.06 -999 -999 -999 -99.9  84.6 -999.9 -9.9 -9.999 -99.9 -99.99 -9.99
2019/08/21 18:36 EDT    2.24   3.08 -999 -999 -999 -99.9  84.6 -999.9 -9.9 -9.999 -99.9 -99.99 -9.99
2019/08/21 18:42 EDT    2.24   3.11 -999 -999 -999 -99.9  84.6 -999.9 -9.9 -9.999 -99.9 -99.99 -9.99
2019/08/21 18:48 EDT    2.23   3.13 -999 -999 -999 -99.9  84.6 -999.9 -9.9 -9.999 -99.9 -99.99 -9.99
2019/08/21 18:54 EDT    2.23   3.12 -999 -999 -999 -99.9  84.6 -999.9 -9.9 -9.999 -99.9 -99.99 -9.99
2019/08/21 19:00 EDT    2.22   3.11 -999 -999 -999 -99.9  84.6 -999.9 -9.9 -9.999 -99.9 -99.99 -9.99
2019/08/21 19:06 EDT    2.22   3.11 -999 -999 -999 -99.9  84.6 -999.9 -9.9 -9.999 -99.9 -99.99 -9.99
2019/08/21 19:12 EDT    2.21   3.09 -999 -999 -999 -99.9  84.6 -999.9 -9.9 -9.999 -99.9 -99.99 -9.99
2019/08/21 19:18 EDT    2.20   3.06 -999 -999 -999 -99.9  84.6 -999.9 -9.9 -9.999 -99.9 -99.99 -9.99
2019/08/21 19:24 EDT    2.19   3.03 -999 -999 -999 -99.9  84.6 -999.9 -9.9 -9.999 -99.9 -99.99 -9.99
2019/08/21 19:30 EDT    2.18   3.00 -999 -999 -999 -99.9  84.6 -999.9 -9.9 -9.999 -99.9 -99.99 -9.99
2019/08/21 19:36 EDT    2.17   2.97 -999 -999 -999 -99.9  84.6 -999.9 -9.9 -9.999 -99.9 -99.99 -9.99
2019/08/21 19:42 EDT    2.16   2.93 -999 -999 -999 -99.9  84.6 -999.9 -9.9 -9.999 -99.9 -99.99 -9.99
2019/08/21 19:48 EDT    2.14   2.90 -999 -999 -999 -99.9  84.6 -999.9 -9.9 -9.999 -99.9 -99.99 -9.99
2019/08/21 19:54 EDT    2.13   2.86 -999 -999 -999 -99.9  84.6 -999.9 -9.9 -9.999 -99.9 -99.99 -9.99
2019/08/21 20:00 EDT    2.11   2.81 -999 -999 -999 -99.9  84.7 -999.9 -9.9 -9.999 -99.9 -99.99 -9.99
2019/08/21 20:06 EDT    2.09   2.77 -999 -999 -999 -99.9  84.7 -999.9 -9.9 -9.999 -99.9 -99.99 -9.99
2019/08/21 20:12 EDT    2.07   2.75 -999 -999 -999 -99.9  84.7 -999.9 -9.9 -9.999 -99.9 -99.99 -9.99
2019/08/21 20:18 EDT    2.05   2.72 -999 -999 -999 -99.9  84.7 -999.9 -9.9 -9.999 -99.9 -99.99 -9.99
2019/08/21 20:24 EDT    2.03   2.68 -999 -999 -999 -99.9  84.7 -999.9 -9.9 -9.999 -99.9 -99.99 -9.99
2019/08/21 20:30 EDT    2.01   2.64 -999 -999 -999 -99.9  84.7 -999.9 -9.9 -9.999 -99.9 -99.99 -9.99
2019/08/21 20:36 EDT    1.98   2.61 -999 -999 -999 -99.9  84.7 -999.9 -9.9 -9.999 -99.9 -99.99 -9.99
2019/08/21 20:42 EDT    1.96   2.57 -999 -999 -999 -99.9  84.7 -999.9 -9.9 -9.999 -99.9 -99.99 -9.99
2019/08/21 20:48 EDT    1.93   2.54 -999 -999 -999 -99.9  84.7 -999.9 -9.9 -9.999 -99.9 -99.99 -9.99
2019/08/21 20:54 EDT    1.90   2.52 -999 -999 -999 -99.9  84.9 -999.9 -9.9 -9.999 -99.9 -99.99 -9.99
2019/08/21 21:00 EDT    1.87   2.46 -999 -999 -999 -99.9  84.9 -999.9 -9.9 -9.999 -99.9 -99.99 -9.99
2019/08/21 21:06 EDT    1.83   2.43 -999 -999 -999 -99.9  84.9 -999.9 -9.9 -9.999 -99.9 -99.99 -9.99
2019/08/21 21:12 EDT    1.80   2.44 -999 -999 -999 -99.9  84.7 -999.9 -9.9 -9.999 -99.9 -99.99 -9.99
2019/08/21 21:18 EDT    1.77   2.45 -999 -999 -999 -99.9  84.7 -999.9 -9.9 -9.999 -99.9 -99.99 -9.99
2019/08/21 21:24 EDT    1.73   2.41 -999 -999 -999 -99.9  84.7 -999.9 -9.9 -9.999 -99.9 -99.99 -9.99
2019/08/21 21:30 EDT    1.69   2.36 -999 -999 -999 -99.9  84.7 -999.9 -9.9 -9.999 -99.9 -99.99 -9.99
2019/08/21 21:36 EDT    1.66   2.37 -999 -999 -999 -99.9  84.7 -999.9 -9.9 -9.999 -99.9 -99.99 -9.99
2019/08/21 21:42 EDT    1.62   2.34 -999 -999 -999 -99.9  84.7 -999.9 -9.9 -9.999 -99.9 -99.99 -9.99
2019/08/21 21:48 EDT    1.58   2.25 -999 -999 -999 -99.9  84.7 -999.9 -9.9 -9.999 -99.9 -99.99 -9.99
2019/08/21 21:54 EDT    1.55   2.23 -999 -999 -999 -99.9  84.7 -999.9 -9.9 -9.999 -99.9 -99.99 -9.99
2019/08/21 22:00 EDT    1.51   2.23 -999 -999 -999 -99.9  84.7 -999.9 -9.9 -9.999 -99.9 -99.99 -9.99
2019/08/21 22:06 EDT    1.47   2.16 -999 -999 -999 -99.9  84.7 -999.9 -9.9 -9.999 -99.9 -99.99 -9.99
2019/08/21 22:12 EDT    1.44   2.07 -999 -999 -999 -99.9  84.7 -999.9 -9.9 -9.999 -99.9 -99.99 -9.99
2019/08/21 22:18 EDT    1.40 -99.99 -999 -999 -999 -99.9 -99.9 -999.9 -9.9 -9.999 -99.9 -99.99 -9.99
2019/08/21 22:24 EDT    1.37 -99.99 -999 -999 -999 -99.9 -99.9 -999.9 -9.9 -9.999 -99.9 -99.99 -9.99

Revised: 08/08/2018
NOAA / National Ocean Service
Web site owner: Center for Operational Oceanographic Products and Services